<?xml version="1.0" encoding="UTF-8" standalone="no" ?>
<gpx xmlns="http://www.topografix.com/GPX/1/1" xmlns:xsi="http://www.w3.org/2001/XMLSchema-instance" xsi:schemaLocation="http://www.topografix.com/GPX/1/1 http://www.topografix.com/GPX/1/1/gpx.xsd" version="1.1" creator="VisuGPX - https://www.visugpx.com">
  <metadata>
    <name>Corse Girolata du col de la croix</name>
    <desc><![CDATA[Superbe sortie assez physique]]></desc>
  </metadata>
  <wpt lat="42.3485" lon="8.61268">
    <ele>17.6698</ele>
    <name><![CDATA[girolata]]></name>
    <desc><![CDATA[08-SEP-11 11:10:57]]></desc>
  </wpt>
  <wpt lat="42.3397" lon="8.62987">
    <ele>-0.354736</ele>
    <name><![CDATA[plage]]></name>
    <desc><![CDATA[08-SEP-11 15:22:36]]></desc>
  </wpt>
  <trk>
    <name><![CDATA[ACTIVE LOG 002]]></name>
    <trkseg>
      <trkpt lat="42.32691" lon="8.63228">
        <ele>287.571411</ele>
        <time>2011-09-08T07:41:46Z</time>
      </trkpt>
      <trkpt lat="42.32692" lon="8.63228">
        <ele>287.571411</ele>
        <time>2011-09-08T07:41:47Z</time>
      </trkpt>
      <trkpt lat="42.32692" lon="8.63228">
        <ele>287.571411</ele>
        <time>2011-09-08T07:41:48Z</time>
      </trkpt>
      <trkpt lat="42.32692" lon="8.63228">
        <ele>285.648804</ele>
        <time>2011-09-08T07:41:52Z</time>
      </trkpt>
      <trkpt lat="42.32692" lon="8.63228">
        <ele>283.726196</ele>
        <time>2011-09-08T07:41:56Z</time>
      </trkpt>
      <trkpt lat="42.32692" lon="8.63228">
        <ele>282.284302</ele>
        <time>2011-09-08T07:42:00Z</time>
      </trkpt>
      <trkpt lat="42.32694" lon="8.63237">
        <ele>280.361694</ele>
        <time>2011-09-08T07:42:06Z</time>
      </trkpt>
      <trkpt lat="42.32694" lon="8.63237">
        <ele>280.842407</ele>
        <time>2011-09-08T07:42:07Z</time>
      </trkpt>
      <trkpt lat="42.32695" lon="8.63238">
        <ele>279.400269</ele>
        <time>2011-09-08T07:42:09Z</time>
      </trkpt>
      <trkpt lat="42.32698" lon="8.63253">
        <ele>276.035645</ele>
        <time>2011-09-08T07:42:20Z</time>
      </trkpt>
      <trkpt lat="42.32698" lon="8.63256">
        <ele>275.555054</ele>
        <time>2011-09-08T07:42:22Z</time>
      </trkpt>
      <trkpt lat="42.32699" lon="8.63268">
        <ele>272.19043</ele>
        <time>2011-09-08T07:42:31Z</time>
      </trkpt>
      <trkpt lat="42.32699" lon="8.63271">
        <ele>271.229126</ele>
        <time>2011-09-08T07:42:33Z</time>
      </trkpt>
      <trkpt lat="42.32698" lon="8.63277">
        <ele>269.306519</ele>
        <time>2011-09-08T07:42:38Z</time>
      </trkpt>
      <trkpt lat="42.327" lon="8.63287">
        <ele>266.903198</ele>
        <time>2011-09-08T07:42:47Z</time>
      </trkpt>
      <trkpt lat="42.3271" lon="8.63297">
        <ele>263.538574</ele>
        <time>2011-09-08T07:43:01Z</time>
      </trkpt>
      <trkpt lat="42.3272" lon="8.63311">
        <ele>261.615967</ele>
        <time>2011-09-08T07:43:18Z</time>
      </trkpt>
      <trkpt lat="42.32733" lon="8.63325">
        <ele>259.693359</ele>
        <time>2011-09-08T07:43:36Z</time>
      </trkpt>
      <trkpt lat="42.32742" lon="8.63338">
        <ele>256.809326</ele>
        <time>2011-09-08T07:43:51Z</time>
      </trkpt>
      <trkpt lat="42.32749" lon="8.63349">
        <ele>255.36731</ele>
        <time>2011-09-08T07:44:04Z</time>
      </trkpt>
      <trkpt lat="42.32754" lon="8.63351">
        <ele>253.925415</ele>
        <time>2011-09-08T07:44:08Z</time>
      </trkpt>
      <trkpt lat="42.32767" lon="8.63362">
        <ele>252.483398</ele>
        <time>2011-09-08T07:44:23Z</time>
      </trkpt>
      <trkpt lat="42.32778" lon="8.63375">
        <ele>250.560791</ele>
        <time>2011-09-08T07:44:38Z</time>
      </trkpt>
      <trkpt lat="42.32787" lon="8.63387">
        <ele>248.638184</ele>
        <time>2011-09-08T07:44:51Z</time>
      </trkpt>
      <trkpt lat="42.32796" lon="8.63405">
        <ele>246.234863</ele>
        <time>2011-09-08T07:45:06Z</time>
      </trkpt>
      <trkpt lat="42.328" lon="8.63409">
        <ele>246.715454</ele>
        <time>2011-09-08T07:45:10Z</time>
      </trkpt>
      <trkpt lat="42.32802" lon="8.63415">
        <ele>244.792847</ele>
        <time>2011-09-08T07:45:15Z</time>
      </trkpt>
      <trkpt lat="42.32804" lon="8.63418">
        <ele>244.792847</ele>
        <time>2011-09-08T07:45:18Z</time>
      </trkpt>
      <trkpt lat="42.32808" lon="8.63425">
        <ele>243.35083</ele>
        <time>2011-09-08T07:45:26Z</time>
      </trkpt>
      <trkpt lat="42.32819" lon="8.63446">
        <ele>239.986206</ele>
        <time>2011-09-08T07:45:45Z</time>
      </trkpt>
      <trkpt lat="42.3282" lon="8.63446">
        <ele>240.467041</ele>
        <time>2011-09-08T07:45:46Z</time>
      </trkpt>
      <trkpt lat="42.32832" lon="8.63463">
        <ele>237.582886</ele>
        <time>2011-09-08T07:46:02Z</time>
      </trkpt>
      <trkpt lat="42.32836" lon="8.63468">
        <ele>236.621704</ele>
        <time>2011-09-08T07:46:07Z</time>
      </trkpt>
      <trkpt lat="42.32848" lon="8.63482">
        <ele>235.179688</ele>
        <time>2011-09-08T07:46:20Z</time>
      </trkpt>
      <trkpt lat="42.3285" lon="8.63482">
        <ele>235.179688</ele>
        <time>2011-09-08T07:46:22Z</time>
      </trkpt>
      <trkpt lat="42.32874" lon="8.63491">
        <ele>234.699097</ele>
        <time>2011-09-08T07:46:40Z</time>
      </trkpt>
      <trkpt lat="42.32893" lon="8.63498">
        <ele>232.776489</ele>
        <time>2011-09-08T07:46:56Z</time>
      </trkpt>
      <trkpt lat="42.32894" lon="8.63499">
        <ele>232.295776</ele>
        <time>2011-09-08T07:46:58Z</time>
      </trkpt>
      <trkpt lat="42.32908" lon="8.63516">
        <ele>229.411743</ele>
        <time>2011-09-08T07:47:15Z</time>
      </trkpt>
      <trkpt lat="42.32914" lon="8.63533">
        <ele>227.489136</ele>
        <time>2011-09-08T07:47:29Z</time>
      </trkpt>
      <trkpt lat="42.32921" lon="8.63551">
        <ele>224.124512</ele>
        <time>2011-09-08T07:47:43Z</time>
      </trkpt>
      <trkpt lat="42.32924" lon="8.63559">
        <ele>223.643799</ele>
        <time>2011-09-08T07:47:49Z</time>
      </trkpt>
      <trkpt lat="42.3293" lon="8.63572">
        <ele>222.682495</ele>
        <time>2011-09-08T07:48:01Z</time>
      </trkpt>
      <trkpt lat="42.32938" lon="8.63589">
        <ele>221.721191</ele>
        <time>2011-09-08T07:48:14Z</time>
      </trkpt>
      <trkpt lat="42.32939" lon="8.63592">
        <ele>220.759888</ele>
        <time>2011-09-08T07:48:17Z</time>
      </trkpt>
      <trkpt lat="42.32942" lon="8.63595">
        <ele>219.798584</ele>
        <time>2011-09-08T07:48:21Z</time>
      </trkpt>
      <trkpt lat="42.32953" lon="8.636">
        <ele>218.356567</ele>
        <time>2011-09-08T07:48:30Z</time>
      </trkpt>
      <trkpt lat="42.32961" lon="8.63596">
        <ele>217.875977</ele>
        <time>2011-09-08T07:48:38Z</time>
      </trkpt>
      <trkpt lat="42.32985" lon="8.63586">
        <ele>216.914673</ele>
        <time>2011-09-08T07:48:58Z</time>
      </trkpt>
      <trkpt lat="42.33005" lon="8.63577">
        <ele>216.43396</ele>
        <time>2011-09-08T07:49:14Z</time>
      </trkpt>
      <trkpt lat="42.33008" lon="8.63575">
        <ele>216.914673</ele>
        <time>2011-09-08T07:49:17Z</time>
      </trkpt>
      <trkpt lat="42.33028" lon="8.63564">
        <ele>215.472656</ele>
        <time>2011-09-08T07:49:34Z</time>
      </trkpt>
      <trkpt lat="42.33054" lon="8.63548">
        <ele>215.472656</ele>
        <time>2011-09-08T07:49:55Z</time>
      </trkpt>
      <trkpt lat="42.33073" lon="8.63535">
        <ele>214.991943</ele>
        <time>2011-09-08T07:50:13Z</time>
      </trkpt>
      <trkpt lat="42.33086" lon="8.63521">
        <ele>216.914673</ele>
        <time>2011-09-08T07:50:31Z</time>
      </trkpt>
      <trkpt lat="42.33088" lon="8.63518">
        <ele>216.914673</ele>
        <time>2011-09-08T07:50:36Z</time>
      </trkpt>
      <trkpt lat="42.33108" lon="8.63511">
        <ele>214.991943</ele>
        <time>2011-09-08T07:50:53Z</time>
      </trkpt>
      <trkpt lat="42.33113" lon="8.63509">
        <ele>214.991943</ele>
        <time>2011-09-08T07:51:07Z</time>
      </trkpt>
      <trkpt lat="42.33115" lon="8.63509">
        <ele>214.51123</ele>
        <time>2011-09-08T07:51:22Z</time>
      </trkpt>
      <trkpt lat="42.33123" lon="8.63514">
        <ele>214.03064</ele>
        <time>2011-09-08T07:51:36Z</time>
      </trkpt>
      <trkpt lat="42.3313" lon="8.63514">
        <ele>213.069336</ele>
        <time>2011-09-08T07:51:48Z</time>
      </trkpt>
      <trkpt lat="42.33148" lon="8.63527">
        <ele>211.146729</ele>
        <time>2011-09-08T07:52:08Z</time>
      </trkpt>
      <trkpt lat="42.33158" lon="8.63535">
        <ele>207.301392</ele>
        <time>2011-09-08T07:52:23Z</time>
      </trkpt>
      <trkpt lat="42.33165" lon="8.6354">
        <ele>204.41748</ele>
        <time>2011-09-08T07:52:36Z</time>
      </trkpt>
      <trkpt lat="42.33173" lon="8.63546">
        <ele>201.533569</ele>
        <time>2011-09-08T07:52:51Z</time>
      </trkpt>
      <trkpt lat="42.33182" lon="8.63555">
        <ele>199.130127</ele>
        <time>2011-09-08T07:53:05Z</time>
      </trkpt>
      <trkpt lat="42.3319" lon="8.63565">
        <ele>196.246338</ele>
        <time>2011-09-08T07:53:18Z</time>
      </trkpt>
      <trkpt lat="42.33198" lon="8.63573">
        <ele>193.843018</ele>
        <time>2011-09-08T07:53:30Z</time>
      </trkpt>
      <trkpt lat="42.33204" lon="8.63576">
        <ele>190.958984</ele>
        <time>2011-09-08T07:53:40Z</time>
      </trkpt>
      <trkpt lat="42.33211" lon="8.63582">
        <ele>188.555786</ele>
        <time>2011-09-08T07:53:54Z</time>
      </trkpt>
      <trkpt lat="42.33213" lon="8.63584">
        <ele>188.075073</ele>
        <time>2011-09-08T07:53:56Z</time>
      </trkpt>
      <trkpt lat="42.33217" lon="8.63592">
        <ele>187.11377</ele>
        <time>2011-09-08T07:54:03Z</time>
      </trkpt>
      <trkpt lat="42.33222" lon="8.63596">
        <ele>186.633179</ele>
        <time>2011-09-08T07:54:07Z</time>
      </trkpt>
      <trkpt lat="42.33225" lon="8.63599">
        <ele>185.671753</ele>
        <time>2011-09-08T07:54:10Z</time>
      </trkpt>
      <trkpt lat="42.33231" lon="8.63598">
        <ele>186.152466</ele>
        <time>2011-09-08T07:54:15Z</time>
      </trkpt>
      <trkpt lat="42.33243" lon="8.63586">
        <ele>184.229858</ele>
        <time>2011-09-08T07:54:30Z</time>
      </trkpt>
      <trkpt lat="42.3326" lon="8.63573">
        <ele>182.787842</ele>
        <time>2011-09-08T07:54:48Z</time>
      </trkpt>
      <trkpt lat="42.33271" lon="8.63562">
        <ele>180.384521</ele>
        <time>2011-09-08T07:55:04Z</time>
      </trkpt>
      <trkpt lat="42.33279" lon="8.6355">
        <ele>177.981201</ele>
        <time>2011-09-08T07:55:17Z</time>
      </trkpt>
      <trkpt lat="42.3329" lon="8.63537">
        <ele>176.539307</ele>
        <time>2011-09-08T07:55:30Z</time>
      </trkpt>
      <trkpt lat="42.33304" lon="8.63507">
        <ele>175.577881</ele>
        <time>2011-09-08T07:55:51Z</time>
      </trkpt>
      <trkpt lat="42.33316" lon="8.63488">
        <ele>173.174683</ele>
        <time>2011-09-08T07:56:09Z</time>
      </trkpt>
      <trkpt lat="42.33333" lon="8.63477">
        <ele>171.732666</ele>
        <time>2011-09-08T07:56:25Z</time>
      </trkpt>
      <trkpt lat="42.33345" lon="8.63474">
        <ele>170.771362</ele>
        <time>2011-09-08T07:56:35Z</time>
      </trkpt>
      <trkpt lat="42.33349" lon="8.6347">
        <ele>170.771362</ele>
        <time>2011-09-08T07:56:39Z</time>
      </trkpt>
      <trkpt lat="42.33353" lon="8.63463">
        <ele>169.810059</ele>
        <time>2011-09-08T07:56:46Z</time>
      </trkpt>
      <trkpt lat="42.33359" lon="8.63444">
        <ele>166.926025</ele>
        <time>2011-09-08T07:57:01Z</time>
      </trkpt>
      <trkpt lat="42.3336" lon="8.63436">
        <ele>165.484131</ele>
        <time>2011-09-08T07:57:09Z</time>
      </trkpt>
      <trkpt lat="42.33362" lon="8.63416">
        <ele>163.561523</ele>
        <time>2011-09-08T07:57:22Z</time>
      </trkpt>
      <trkpt lat="42.33369" lon="8.63389">
        <ele>162.119507</ele>
        <time>2011-09-08T07:57:39Z</time>
      </trkpt>
      <trkpt lat="42.33372" lon="8.63376">
        <ele>161.638916</ele>
        <time>2011-09-08T07:57:48Z</time>
      </trkpt>
      <trkpt lat="42.33374" lon="8.63371">
        <ele>161.638916</ele>
        <time>2011-09-08T07:57:51Z</time>
      </trkpt>
      <trkpt lat="42.33381" lon="8.63361">
        <ele>160.67749</ele>
        <time>2011-09-08T07:57:59Z</time>
      </trkpt>
      <trkpt lat="42.33398" lon="8.6334">
        <ele>158.27417</ele>
        <time>2011-09-08T07:58:15Z</time>
      </trkpt>
      <trkpt lat="42.3341" lon="8.63326">
        <ele>155.870972</ele>
        <time>2011-09-08T07:58:30Z</time>
      </trkpt>
      <trkpt lat="42.33424" lon="8.63313">
        <ele>152.986938</ele>
        <time>2011-09-08T07:58:46Z</time>
      </trkpt>
      <trkpt lat="42.33427" lon="8.63298">
        <ele>151.064209</ele>
        <time>2011-09-08T07:58:56Z</time>
      </trkpt>
      <trkpt lat="42.33431" lon="8.63293">
        <ele>150.103027</ele>
        <time>2011-09-08T07:59:01Z</time>
      </trkpt>
      <trkpt lat="42.33441" lon="8.63268">
        <ele>149.622314</ele>
        <time>2011-09-08T07:59:18Z</time>
      </trkpt>
      <trkpt lat="42.33444" lon="8.63238">
        <ele>148.661011</ele>
        <time>2011-09-08T07:59:36Z</time>
      </trkpt>
      <trkpt lat="42.33447" lon="8.63233">
        <ele>149.141602</ele>
        <time>2011-09-08T07:59:39Z</time>
      </trkpt>
      <trkpt lat="42.3345" lon="8.63219">
        <ele>148.18042</ele>
        <time>2011-09-08T07:59:52Z</time>
      </trkpt>
      <trkpt lat="42.33452" lon="8.63205">
        <ele>146.257812</ele>
        <time>2011-09-08T08:00:07Z</time>
      </trkpt>
      <trkpt lat="42.33461" lon="8.63184">
        <ele>145.296387</ele>
        <time>2011-09-08T08:00:23Z</time>
      </trkpt>
      <trkpt lat="42.33465" lon="8.63178">
        <ele>144.335205</ele>
        <time>2011-09-08T08:00:30Z</time>
      </trkpt>
      <trkpt lat="42.33471" lon="8.63172">
        <ele>142.893066</ele>
        <time>2011-09-08T08:00:39Z</time>
      </trkpt>
      <trkpt lat="42.33481" lon="8.63163">
        <ele>140.009155</ele>
        <time>2011-09-08T08:00:52Z</time>
      </trkpt>
      <trkpt lat="42.3349" lon="8.63159">
        <ele>138.086548</ele>
        <time>2011-09-08T08:01:02Z</time>
      </trkpt>
      <trkpt lat="42.3351" lon="8.63156">
        <ele>135.202515</ele>
        <time>2011-09-08T08:01:19Z</time>
      </trkpt>
      <trkpt lat="42.3353" lon="8.63145">
        <ele>133.279907</ele>
        <time>2011-09-08T08:01:37Z</time>
      </trkpt>
      <trkpt lat="42.33538" lon="8.63139">
        <ele>130.876709</ele>
        <time>2011-09-08T08:01:46Z</time>
      </trkpt>
      <trkpt lat="42.33547" lon="8.63133">
        <ele>128.954102</ele>
        <time>2011-09-08T08:01:57Z</time>
      </trkpt>
      <trkpt lat="42.3356" lon="8.63116">
        <ele>126.069946</ele>
        <time>2011-09-08T08:02:11Z</time>
      </trkpt>
      <trkpt lat="42.33562" lon="8.63114">
        <ele>126.069946</ele>
        <time>2011-09-08T08:02:13Z</time>
      </trkpt>
      <trkpt lat="42.33567" lon="8.63103">
        <ele>126.069946</ele>
        <time>2011-09-08T08:02:19Z</time>
      </trkpt>
      <trkpt lat="42.33575" lon="8.63081">
        <ele>124.147339</ele>
        <time>2011-09-08T08:02:36Z</time>
      </trkpt>
      <trkpt lat="42.33578" lon="8.63074">
        <ele>123.186157</ele>
        <time>2011-09-08T08:02:43Z</time>
      </trkpt>
      <trkpt lat="42.33581" lon="8.6306">
        <ele>120.782837</ele>
        <time>2011-09-08T08:02:55Z</time>
      </trkpt>
      <trkpt lat="42.33586" lon="8.63046">
        <ele>119.821411</ele>
        <time>2011-09-08T08:03:09Z</time>
      </trkpt>
      <trkpt lat="42.33587" lon="8.63037">
        <ele>118.379395</ele>
        <time>2011-09-08T08:03:17Z</time>
      </trkpt>
      <trkpt lat="42.33586" lon="8.63019">
        <ele>116.9375</ele>
        <time>2011-09-08T08:03:31Z</time>
      </trkpt>
      <trkpt lat="42.33592" lon="8.62998">
        <ele>115.014893</ele>
        <time>2011-09-08T08:03:45Z</time>
      </trkpt>
      <trkpt lat="42.33603" lon="8.62976">
        <ele>113.572998</ele>
        <time>2011-09-08T08:04:03Z</time>
      </trkpt>
      <trkpt lat="42.33604" lon="8.62973">
        <ele>113.092285</ele>
        <time>2011-09-08T08:04:06Z</time>
      </trkpt>
      <trkpt lat="42.33612" lon="8.62956">
        <ele>111.650269</ele>
        <time>2011-09-08T08:04:22Z</time>
      </trkpt>
      <trkpt lat="42.33612" lon="8.62955">
        <ele>111.169556</ele>
        <time>2011-09-08T08:04:23Z</time>
      </trkpt>
      <trkpt lat="42.3362" lon="8.62938">
        <ele>109.246948</ele>
        <time>2011-09-08T08:04:39Z</time>
      </trkpt>
      <trkpt lat="42.33623" lon="8.62926">
        <ele>106.363037</ele>
        <time>2011-09-08T08:04:53Z</time>
      </trkpt>
      <trkpt lat="42.33625" lon="8.62912">
        <ele>104.44043</ele>
        <time>2011-09-08T08:05:06Z</time>
      </trkpt>
      <trkpt lat="42.33626" lon="8.62908">
        <ele>102.998291</ele>
        <time>2011-09-08T08:05:11Z</time>
      </trkpt>
      <trkpt lat="42.3363" lon="8.62891">
        <ele>100.595093</ele>
        <time>2011-09-08T08:05:27Z</time>
      </trkpt>
      <trkpt lat="42.33638" lon="8.6288">
        <ele>99.153076</ele>
        <time>2011-09-08T08:05:41Z</time>
      </trkpt>
      <trkpt lat="42.33652" lon="8.62876">
        <ele>96.749878</ele>
        <time>2011-09-08T08:05:55Z</time>
      </trkpt>
      <trkpt lat="42.33662" lon="8.62876">
        <ele>93.865845</ele>
        <time>2011-09-08T08:06:07Z</time>
      </trkpt>
      <trkpt lat="42.33672" lon="8.62874">
        <ele>90.501343</ele>
        <time>2011-09-08T08:06:21Z</time>
      </trkpt>
      <trkpt lat="42.33682" lon="8.62875">
        <ele>89.059326</ele>
        <time>2011-09-08T08:06:31Z</time>
      </trkpt>
      <trkpt lat="42.33693" lon="8.62878">
        <ele>86.175293</ele>
        <time>2011-09-08T08:06:44Z</time>
      </trkpt>
      <trkpt lat="42.33696" lon="8.62878">
        <ele>86.175293</ele>
        <time>2011-09-08T08:06:47Z</time>
      </trkpt>
      <trkpt lat="42.33705" lon="8.62881">
        <ele>84.252686</ele>
        <time>2011-09-08T08:06:59Z</time>
      </trkpt>
      <trkpt lat="42.33713" lon="8.6288">
        <ele>81.368774</ele>
        <time>2011-09-08T08:07:12Z</time>
      </trkpt>
      <trkpt lat="42.33723" lon="8.62878">
        <ele>78.965454</ele>
        <time>2011-09-08T08:07:26Z</time>
      </trkpt>
      <trkpt lat="42.33733" lon="8.62883">
        <ele>76.562134</ele>
        <time>2011-09-08T08:07:39Z</time>
      </trkpt>
      <trkpt lat="42.33746" lon="8.62885">
        <ele>74.639526</ele>
        <time>2011-09-08T08:07:55Z</time>
      </trkpt>
      <trkpt lat="42.33756" lon="8.62888">
        <ele>71.274902</ele>
        <time>2011-09-08T08:08:09Z</time>
      </trkpt>
      <trkpt lat="42.33771" lon="8.62895">
        <ele>68.871582</ele>
        <time>2011-09-08T08:08:28Z</time>
      </trkpt>
      <trkpt lat="42.33772" lon="8.62895">
        <ele>68.871582</ele>
        <time>2011-09-08T08:08:29Z</time>
      </trkpt>
      <trkpt lat="42.3378" lon="8.62896">
        <ele>66.468262</ele>
        <time>2011-09-08T08:08:42Z</time>
      </trkpt>
      <trkpt lat="42.33789" lon="8.62898">
        <ele>63.103638</ele>
        <time>2011-09-08T08:08:55Z</time>
      </trkpt>
      <trkpt lat="42.33802" lon="8.62901">
        <ele>62.142334</ele>
        <time>2011-09-08T08:09:08Z</time>
      </trkpt>
      <trkpt lat="42.33813" lon="8.62903">
        <ele>59.258423</ele>
        <time>2011-09-08T08:09:19Z</time>
      </trkpt>
      <trkpt lat="42.33817" lon="8.62903">
        <ele>57.335815</ele>
        <time>2011-09-08T08:09:23Z</time>
      </trkpt>
      <trkpt lat="42.3382" lon="8.62905">
        <ele>56.374512</ele>
        <time>2011-09-08T08:09:27Z</time>
      </trkpt>
      <trkpt lat="42.33826" lon="8.62906">
        <ele>55.413086</ele>
        <time>2011-09-08T08:09:33Z</time>
      </trkpt>
      <trkpt lat="42.33829" lon="8.62909">
        <ele>54.932373</ele>
        <time>2011-09-08T08:09:37Z</time>
      </trkpt>
      <trkpt lat="42.33834" lon="8.62912">
        <ele>53.971191</ele>
        <time>2011-09-08T08:09:43Z</time>
      </trkpt>
      <trkpt lat="42.33844" lon="8.62928">
        <ele>50.606567</ele>
        <time>2011-09-08T08:09:58Z</time>
      </trkpt>
      <trkpt lat="42.33849" lon="8.62937">
        <ele>49.164551</ele>
        <time>2011-09-08T08:10:07Z</time>
      </trkpt>
      <trkpt lat="42.33867" lon="8.62944">
        <ele>46.28064</ele>
        <time>2011-09-08T08:10:23Z</time>
      </trkpt>
      <trkpt lat="42.33887" lon="8.62951">
        <ele>45.799927</ele>
        <time>2011-09-08T08:10:39Z</time>
      </trkpt>
      <trkpt lat="42.33904" lon="8.6296">
        <ele>42.916016</ele>
        <time>2011-09-08T08:10:55Z</time>
      </trkpt>
      <trkpt lat="42.33905" lon="8.62961">
        <ele>41.954712</ele>
        <time>2011-09-08T08:10:57Z</time>
      </trkpt>
      <trkpt lat="42.33914" lon="8.62964">
        <ele>39.070679</ele>
        <time>2011-09-08T08:11:09Z</time>
      </trkpt>
      <trkpt lat="42.33917" lon="8.62964">
        <ele>38.590088</ele>
        <time>2011-09-08T08:11:12Z</time>
      </trkpt>
      <trkpt lat="42.3392" lon="8.62969">
        <ele>38.109375</ele>
        <time>2011-09-08T08:11:16Z</time>
      </trkpt>
      <trkpt lat="42.33925" lon="8.62975">
        <ele>37.628662</ele>
        <time>2011-09-08T08:11:23Z</time>
      </trkpt>
      <trkpt lat="42.33927" lon="8.62979">
        <ele>36.66748</ele>
        <time>2011-09-08T08:11:26Z</time>
      </trkpt>
      <trkpt lat="42.33934" lon="8.62988">
        <ele>35.225464</ele>
        <time>2011-09-08T08:11:34Z</time>
      </trkpt>
      <trkpt lat="42.33937" lon="8.62993">
        <ele>35.225464</ele>
        <time>2011-09-08T08:11:38Z</time>
      </trkpt>
      <trkpt lat="42.33946" lon="8.6301">
        <ele>33.302856</ele>
        <time>2011-09-08T08:11:52Z</time>
      </trkpt>
      <trkpt lat="42.33949" lon="8.63017">
        <ele>32.341553</ele>
        <time>2011-09-08T08:11:57Z</time>
      </trkpt>
      <trkpt lat="42.33954" lon="8.63028">
        <ele>30.899536</ele>
        <time>2011-09-08T08:12:04Z</time>
      </trkpt>
      <trkpt lat="42.33959" lon="8.6304">
        <ele>29.93811</ele>
        <time>2011-09-08T08:12:11Z</time>
      </trkpt>
      <trkpt lat="42.33962" lon="8.6305">
        <ele>28.015503</ele>
        <time>2011-09-08T08:12:17Z</time>
      </trkpt>
      <trkpt lat="42.33964" lon="8.6306">
        <ele>28.496216</ele>
        <time>2011-09-08T08:12:22Z</time>
      </trkpt>
      <trkpt lat="42.33965" lon="8.63069">
        <ele>28.496216</ele>
        <time>2011-09-08T08:12:27Z</time>
      </trkpt>
      <trkpt lat="42.33964" lon="8.63094">
        <ele>26.573608</ele>
        <time>2011-09-08T08:12:42Z</time>
      </trkpt>
      <trkpt lat="42.33964" lon="8.63097">
        <ele>26.092896</ele>
        <time>2011-09-08T08:12:44Z</time>
      </trkpt>
      <trkpt lat="42.33968" lon="8.63113">
        <ele>23.689575</ele>
        <time>2011-09-08T08:12:55Z</time>
      </trkpt>
      <trkpt lat="42.33972" lon="8.63113">
        <ele>21.766968</ele>
        <time>2011-09-08T08:12:59Z</time>
      </trkpt>
      <trkpt lat="42.33979" lon="8.63104">
        <ele>20.324951</ele>
        <time>2011-09-08T08:13:08Z</time>
      </trkpt>
      <trkpt lat="42.33988" lon="8.6309">
        <ele>17.921753</ele>
        <time>2011-09-08T08:13:20Z</time>
      </trkpt>
      <trkpt lat="42.33993" lon="8.63082">
        <ele>17.921753</ele>
        <time>2011-09-08T08:13:26Z</time>
      </trkpt>
      <trkpt lat="42.33998" lon="8.6307">
        <ele>18.402344</ele>
        <time>2011-09-08T08:13:35Z</time>
      </trkpt>
      <trkpt lat="42.34004" lon="8.63071">
        <ele>17.441162</ele>
        <time>2011-09-08T08:13:41Z</time>
      </trkpt>
      <trkpt lat="42.3402" lon="8.63068">
        <ele>17.921753</ele>
        <time>2011-09-08T08:13:58Z</time>
      </trkpt>
      <trkpt lat="42.34027" lon="8.63042">
        <ele>16.960449</ele>
        <time>2011-09-08T08:14:13Z</time>
      </trkpt>
      <trkpt lat="42.34028" lon="8.63034">
        <ele>16.960449</ele>
        <time>2011-09-08T08:14:18Z</time>
      </trkpt>
      <trkpt lat="42.34028" lon="8.63027">
        <ele>16.479736</ele>
        <time>2011-09-08T08:14:22Z</time>
      </trkpt>
      <trkpt lat="42.34023" lon="8.62998">
        <ele>16.479736</ele>
        <time>2011-09-08T08:14:39Z</time>
      </trkpt>
      <trkpt lat="42.34019" lon="8.62988">
        <ele>16.960449</ele>
        <time>2011-09-08T08:14:45Z</time>
      </trkpt>
      <trkpt lat="42.34017" lon="8.6298">
        <ele>16.960449</ele>
        <time>2011-09-08T08:14:50Z</time>
      </trkpt>
      <trkpt lat="42.34017" lon="8.62973">
        <ele>15.999023</ele>
        <time>2011-09-08T08:14:54Z</time>
      </trkpt>
      <trkpt lat="42.3402" lon="8.62968">
        <ele>16.479736</ele>
        <time>2011-09-08T08:14:59Z</time>
      </trkpt>
      <trkpt lat="42.34033" lon="8.62946">
        <ele>17.921753</ele>
        <time>2011-09-08T08:15:17Z</time>
      </trkpt>
      <trkpt lat="42.34037" lon="8.62935">
        <ele>17.441162</ele>
        <time>2011-09-08T08:15:25Z</time>
      </trkpt>
      <trkpt lat="42.34039" lon="8.62933">
        <ele>17.921753</ele>
        <time>2011-09-08T08:15:27Z</time>
      </trkpt>
      <trkpt lat="42.34038" lon="8.62926">
        <ele>17.921753</ele>
        <time>2011-09-08T08:15:32Z</time>
      </trkpt>
      <trkpt lat="42.34034" lon="8.62907">
        <ele>17.921753</ele>
        <time>2011-09-08T08:15:49Z</time>
      </trkpt>
      <trkpt lat="42.34038" lon="8.62884">
        <ele>15.999023</ele>
        <time>2011-09-08T08:16:08Z</time>
      </trkpt>
      <trkpt lat="42.34038" lon="8.62878">
        <ele>15.999023</ele>
        <time>2011-09-08T08:16:23Z</time>
      </trkpt>
      <trkpt lat="42.34038" lon="8.62877">
        <ele>15.518433</ele>
        <time>2011-09-08T08:16:31Z</time>
      </trkpt>
      <trkpt lat="42.34048" lon="8.62874">
        <ele>15.518433</ele>
        <time>2011-09-08T08:16:46Z</time>
      </trkpt>
      <trkpt lat="42.34062" lon="8.62864">
        <ele>17.441162</ele>
        <time>2011-09-08T08:17:03Z</time>
      </trkpt>
      <trkpt lat="42.34071" lon="8.6286">
        <ele>19.84436</ele>
        <time>2011-09-08T08:17:18Z</time>
      </trkpt>
      <trkpt lat="42.34077" lon="8.62858">
        <ele>20.805664</ele>
        <time>2011-09-08T08:17:26Z</time>
      </trkpt>
      <trkpt lat="42.34088" lon="8.62873">
        <ele>23.208984</ele>
        <time>2011-09-08T08:17:43Z</time>
      </trkpt>
      <trkpt lat="42.34094" lon="8.62886">
        <ele>25.612305</ele>
        <time>2011-09-08T08:17:55Z</time>
      </trkpt>
      <trkpt lat="42.34104" lon="8.62878">
        <ele>27.054321</ele>
        <time>2011-09-08T08:18:07Z</time>
      </trkpt>
      <trkpt lat="42.34111" lon="8.62863">
        <ele>29.45752</ele>
        <time>2011-09-08T08:18:22Z</time>
      </trkpt>
      <trkpt lat="42.34112" lon="8.62855">
        <ele>32.341553</ele>
        <time>2011-09-08T08:18:30Z</time>
      </trkpt>
      <trkpt lat="42.34118" lon="8.62844">
        <ele>32.822266</ele>
        <time>2011-09-08T08:18:43Z</time>
      </trkpt>
      <trkpt lat="42.34123" lon="8.62827">
        <ele>35.706055</ele>
        <time>2011-09-08T08:19:01Z</time>
      </trkpt>
      <trkpt lat="42.34129" lon="8.62814">
        <ele>38.109375</ele>
        <time>2011-09-08T08:19:13Z</time>
      </trkpt>
      <trkpt lat="42.34129" lon="8.62806">
        <ele>38.590088</ele>
        <time>2011-09-08T08:19:23Z</time>
      </trkpt>
      <trkpt lat="42.34132" lon="8.62795">
        <ele>41.954712</ele>
        <time>2011-09-08T08:19:35Z</time>
      </trkpt>
      <trkpt lat="42.34134" lon="8.62782">
        <ele>42.435425</ele>
        <time>2011-09-08T08:19:49Z</time>
      </trkpt>
      <trkpt lat="42.34136" lon="8.62769">
        <ele>44.358032</ele>
        <time>2011-09-08T08:20:02Z</time>
      </trkpt>
      <trkpt lat="42.34141" lon="8.62762">
        <ele>46.28064</ele>
        <time>2011-09-08T08:20:15Z</time>
      </trkpt>
      <trkpt lat="42.34147" lon="8.62779">
        <ele>46.76123</ele>
        <time>2011-09-08T08:20:32Z</time>
      </trkpt>
      <trkpt lat="42.34149" lon="8.62784">
        <ele>47.241821</ele>
        <time>2011-09-08T08:20:43Z</time>
      </trkpt>
      <trkpt lat="42.34152" lon="8.62792">
        <ele>47.241821</ele>
        <time>2011-09-08T08:20:54Z</time>
      </trkpt>
      <trkpt lat="42.34153" lon="8.62794">
        <ele>46.76123</ele>
        <time>2011-09-08T08:20:56Z</time>
      </trkpt>
      <trkpt lat="42.3416" lon="8.62806">
        <ele>49.645264</ele>
        <time>2011-09-08T08:21:08Z</time>
      </trkpt>
      <trkpt lat="42.34168" lon="8.62817">
        <ele>51.567871</ele>
        <time>2011-09-08T08:21:21Z</time>
      </trkpt>
      <trkpt lat="42.34176" lon="8.62829">
        <ele>53.009766</ele>
        <time>2011-09-08T08:21:34Z</time>
      </trkpt>
      <trkpt lat="42.34184" lon="8.6284">
        <ele>56.855103</ele>
        <time>2011-09-08T08:21:48Z</time>
      </trkpt>
      <trkpt lat="42.34189" lon="8.62851">
        <ele>56.855103</ele>
        <time>2011-09-08T08:21:58Z</time>
      </trkpt>
      <trkpt lat="42.34198" lon="8.62866">
        <ele>58.77771</ele>
        <time>2011-09-08T08:22:15Z</time>
      </trkpt>
      <trkpt lat="42.34199" lon="8.62869">
        <ele>58.77771</ele>
        <time>2011-09-08T08:22:18Z</time>
      </trkpt>
      <trkpt lat="42.34206" lon="8.62884">
        <ele>60.700317</ele>
        <time>2011-09-08T08:22:33Z</time>
      </trkpt>
      <trkpt lat="42.34211" lon="8.62904">
        <ele>61.18103</ele>
        <time>2011-09-08T08:22:47Z</time>
      </trkpt>
      <trkpt lat="42.34211" lon="8.62908">
        <ele>62.142334</ele>
        <time>2011-09-08T08:22:51Z</time>
      </trkpt>
      <trkpt lat="42.34221" lon="8.62921">
        <ele>65.026367</ele>
        <time>2011-09-08T08:23:06Z</time>
      </trkpt>
      <trkpt lat="42.34231" lon="8.62929">
        <ele>66.468262</ele>
        <time>2011-09-08T08:23:17Z</time>
      </trkpt>
      <trkpt lat="42.34242" lon="8.62916">
        <ele>67.910278</ele>
        <time>2011-09-08T08:23:31Z</time>
      </trkpt>
      <trkpt lat="42.34245" lon="8.62915">
        <ele>68.390869</ele>
        <time>2011-09-08T08:23:35Z</time>
      </trkpt>
      <trkpt lat="42.34257" lon="8.62908">
        <ele>69.832886</ele>
        <time>2011-09-08T08:23:48Z</time>
      </trkpt>
      <trkpt lat="42.34272" lon="8.62898">
        <ele>72.236206</ele>
        <time>2011-09-08T08:24:06Z</time>
      </trkpt>
      <trkpt lat="42.34288" lon="8.6289">
        <ele>74.639526</ele>
        <time>2011-09-08T08:24:24Z</time>
      </trkpt>
      <trkpt lat="42.34302" lon="8.62884">
        <ele>77.523438</ele>
        <time>2011-09-08T08:24:38Z</time>
      </trkpt>
      <trkpt lat="42.34312" lon="8.62879">
        <ele>78.484741</ele>
        <time>2011-09-08T08:24:48Z</time>
      </trkpt>
      <trkpt lat="42.34328" lon="8.62877">
        <ele>80.407471</ele>
        <time>2011-09-08T08:25:06Z</time>
      </trkpt>
      <trkpt lat="42.34335" lon="8.62876">
        <ele>81.849365</ele>
        <time>2011-09-08T08:25:13Z</time>
      </trkpt>
      <trkpt lat="42.34349" lon="8.62876">
        <ele>83.291382</ele>
        <time>2011-09-08T08:25:27Z</time>
      </trkpt>
      <trkpt lat="42.34358" lon="8.62887">
        <ele>85.69458</ele>
        <time>2011-09-08T08:25:39Z</time>
      </trkpt>
      <trkpt lat="42.34367" lon="8.62898">
        <ele>88.578735</ele>
        <time>2011-09-08T08:25:55Z</time>
      </trkpt>
      <trkpt lat="42.34373" lon="8.62906">
        <ele>90.02063</ele>
        <time>2011-09-08T08:26:06Z</time>
      </trkpt>
      <trkpt lat="42.3438" lon="8.62908">
        <ele>91.943237</ele>
        <time>2011-09-08T08:26:16Z</time>
      </trkpt>
      <trkpt lat="42.34389" lon="8.62906">
        <ele>94.827148</ele>
        <time>2011-09-08T08:26:29Z</time>
      </trkpt>
      <trkpt lat="42.34399" lon="8.62898">
        <ele>96.749878</ele>
        <time>2011-09-08T08:26:43Z</time>
      </trkpt>
      <trkpt lat="42.34407" lon="8.62889">
        <ele>99.153076</ele>
        <time>2011-09-08T08:26:55Z</time>
      </trkpt>
      <trkpt lat="42.3442" lon="8.62879">
        <ele>101.075684</ele>
        <time>2011-09-08T08:27:12Z</time>
      </trkpt>
      <trkpt lat="42.34431" lon="8.62872">
        <ele>103.959717</ele>
        <time>2011-09-08T08:27:26Z</time>
      </trkpt>
      <trkpt lat="42.34442" lon="8.62869">
        <ele>106.363037</ele>
        <time>2011-09-08T08:27:39Z</time>
      </trkpt>
      <trkpt lat="42.34449" lon="8.62864">
        <ele>109.246948</ele>
        <time>2011-09-08T08:27:51Z</time>
      </trkpt>
      <trkpt lat="42.34457" lon="8.62858">
        <ele>109.727661</ele>
        <time>2011-09-08T08:28:01Z</time>
      </trkpt>
      <trkpt lat="42.34458" lon="8.62857">
        <ele>109.727661</ele>
        <time>2011-09-08T08:28:02Z</time>
      </trkpt>
      <trkpt lat="42.34465" lon="8.62856">
        <ele>110.208252</ele>
        <time>2011-09-08T08:28:08Z</time>
      </trkpt>
      <trkpt lat="42.34481" lon="8.6284">
        <ele>112.611572</ele>
        <time>2011-09-08T08:28:28Z</time>
      </trkpt>
      <trkpt lat="42.34485" lon="8.62837">
        <ele>114.053589</ele>
        <time>2011-09-08T08:28:33Z</time>
      </trkpt>
      <trkpt lat="42.34493" lon="8.62827">
        <ele>116.9375</ele>
        <time>2011-09-08T08:28:46Z</time>
      </trkpt>
      <trkpt lat="42.34503" lon="8.62819">
        <ele>117.418213</ele>
        <time>2011-09-08T08:28:59Z</time>
      </trkpt>
      <trkpt lat="42.34511" lon="8.62809">
        <ele>120.782837</ele>
        <time>2011-09-08T08:29:11Z</time>
      </trkpt>
      <trkpt lat="42.3452" lon="8.628">
        <ele>121.26355</ele>
        <time>2011-09-08T08:29:22Z</time>
      </trkpt>
      <trkpt lat="42.34529" lon="8.62792">
        <ele>122.705444</ele>
        <time>2011-09-08T08:29:32Z</time>
      </trkpt>
      <trkpt lat="42.34545" lon="8.62782">
        <ele>125.108765</ele>
        <time>2011-09-08T08:29:50Z</time>
      </trkpt>
      <trkpt lat="42.34548" lon="8.62781">
        <ele>125.589355</ele>
        <time>2011-09-08T08:29:53Z</time>
      </trkpt>
      <trkpt lat="42.34556" lon="8.62778">
        <ele>126.550659</ele>
        <time>2011-09-08T08:30:01Z</time>
      </trkpt>
      <trkpt lat="42.34569" lon="8.62773">
        <ele>128.954102</ele>
        <time>2011-09-08T08:30:18Z</time>
      </trkpt>
      <trkpt lat="42.34578" lon="8.6277">
        <ele>130.876709</ele>
        <time>2011-09-08T08:30:32Z</time>
      </trkpt>
      <trkpt lat="42.34587" lon="8.62767">
        <ele>133.760498</ele>
        <time>2011-09-08T08:30:46Z</time>
      </trkpt>
      <trkpt lat="42.34589" lon="8.62765">
        <ele>134.721924</ele>
        <time>2011-09-08T08:30:59Z</time>
      </trkpt>
      <trkpt lat="42.34582" lon="8.62757">
        <ele>137.605835</ele>
        <time>2011-09-08T08:31:13Z</time>
      </trkpt>
      <trkpt lat="42.34577" lon="8.62751">
        <ele>140.009155</ele>
        <time>2011-09-08T08:31:21Z</time>
      </trkpt>
      <trkpt lat="42.34574" lon="8.62749">
        <ele>140.970459</ele>
        <time>2011-09-08T08:31:25Z</time>
      </trkpt>
      <trkpt lat="42.34566" lon="8.62734">
        <ele>144.335205</ele>
        <time>2011-09-08T08:31:42Z</time>
      </trkpt>
      <trkpt lat="42.34561" lon="8.62729">
        <ele>145.296387</ele>
        <time>2011-09-08T08:31:49Z</time>
      </trkpt>
      <trkpt lat="42.34551" lon="8.62721">
        <ele>146.738403</ele>
        <time>2011-09-08T08:32:00Z</time>
      </trkpt>
      <trkpt lat="42.34554" lon="8.62704">
        <ele>148.661011</ele>
        <time>2011-09-08T08:32:15Z</time>
      </trkpt>
      <trkpt lat="42.34565" lon="8.62686">
        <ele>149.622314</ele>
        <time>2011-09-08T08:32:31Z</time>
      </trkpt>
      <trkpt lat="42.34573" lon="8.62678">
        <ele>151.544922</ele>
        <time>2011-09-08T08:32:40Z</time>
      </trkpt>
      <trkpt lat="42.34576" lon="8.62667">
        <ele>151.544922</ele>
        <time>2011-09-08T08:32:50Z</time>
      </trkpt>
      <trkpt lat="42.34583" lon="8.62641">
        <ele>154.909546</ele>
        <time>2011-09-08T08:33:09Z</time>
      </trkpt>
      <trkpt lat="42.34589" lon="8.62616">
        <ele>157.312866</ele>
        <time>2011-09-08T08:33:27Z</time>
      </trkpt>
      <trkpt lat="42.34594" lon="8.62588">
        <ele>159.235474</ele>
        <time>2011-09-08T08:33:45Z</time>
      </trkpt>
      <trkpt lat="42.34597" lon="8.62566">
        <ele>160.196899</ele>
        <time>2011-09-08T08:33:59Z</time>
      </trkpt>
      <trkpt lat="42.34601" lon="8.62537">
        <ele>163.080811</ele>
        <time>2011-09-08T08:34:19Z</time>
      </trkpt>
      <trkpt lat="42.34602" lon="8.62523">
        <ele>165.003418</ele>
        <time>2011-09-08T08:34:33Z</time>
      </trkpt>
      <trkpt lat="42.34603" lon="8.62516">
        <ele>165.964722</ele>
        <time>2011-09-08T08:34:39Z</time>
      </trkpt>
      <trkpt lat="42.34601" lon="8.62494">
        <ele>168.848755</ele>
        <time>2011-09-08T08:34:57Z</time>
      </trkpt>
      <trkpt lat="42.34596" lon="8.62475">
        <ele>172.213257</ele>
        <time>2011-09-08T08:35:15Z</time>
      </trkpt>
      <trkpt lat="42.34592" lon="8.62456">
        <ele>173.655273</ele>
        <time>2011-09-08T08:35:31Z</time>
      </trkpt>
      <trkpt lat="42.34592" lon="8.6244">
        <ele>176.058594</ele>
        <time>2011-09-08T08:35:46Z</time>
      </trkpt>
      <trkpt lat="42.34591" lon="8.6243">
        <ele>179.423218</ele>
        <time>2011-09-08T08:35:59Z</time>
      </trkpt>
      <trkpt lat="42.3459" lon="8.62418">
        <ele>180.384521</ele>
        <time>2011-09-08T08:36:12Z</time>
      </trkpt>
      <trkpt lat="42.34588" lon="8.62407">
        <ele>183.749023</ele>
        <time>2011-09-08T08:36:23Z</time>
      </trkpt>
      <trkpt lat="42.34594" lon="8.62405">
        <ele>185.671753</ele>
        <time>2011-09-08T08:36:35Z</time>
      </trkpt>
      <trkpt lat="42.34602" lon="8.62397">
        <ele>187.59436</ele>
        <time>2011-09-08T08:36:48Z</time>
      </trkpt>
      <trkpt lat="42.34609" lon="8.62392">
        <ele>188.555786</ele>
        <time>2011-09-08T08:37:02Z</time>
      </trkpt>
      <trkpt lat="42.34608" lon="8.62386">
        <ele>187.59436</ele>
        <time>2011-09-08T08:37:16Z</time>
      </trkpt>
      <trkpt lat="42.3461" lon="8.62394">
        <ele>188.075073</ele>
        <time>2011-09-08T08:37:35Z</time>
      </trkpt>
      <trkpt lat="42.3461" lon="8.62394">
        <ele>189.516968</ele>
        <time>2011-09-08T08:37:58Z</time>
      </trkpt>
      <trkpt lat="42.34617" lon="8.62388">
        <ele>187.59436</ele>
        <time>2011-09-08T08:38:10Z</time>
      </trkpt>
      <trkpt lat="42.34618" lon="8.62387">
        <ele>187.59436</ele>
        <time>2011-09-08T08:38:11Z</time>
      </trkpt>
      <trkpt lat="42.34626" lon="8.62386">
        <ele>185.671753</ele>
        <time>2011-09-08T08:38:19Z</time>
      </trkpt>
      <trkpt lat="42.3464" lon="8.62381">
        <ele>184.229858</ele>
        <time>2011-09-08T08:38:32Z</time>
      </trkpt>
      <trkpt lat="42.34662" lon="8.6238">
        <ele>184.229858</ele>
        <time>2011-09-08T08:38:50Z</time>
      </trkpt>
      <trkpt lat="42.34683" lon="8.62376">
        <ele>183.268433</ele>
        <time>2011-09-08T08:39:07Z</time>
      </trkpt>
      <trkpt lat="42.34685" lon="8.62375">
        <ele>182.787842</ele>
        <time>2011-09-08T08:39:09Z</time>
      </trkpt>
      <trkpt lat="42.34695" lon="8.62363">
        <ele>181.345825</ele>
        <time>2011-09-08T08:39:20Z</time>
      </trkpt>
      <trkpt lat="42.3471" lon="8.62346">
        <ele>181.826416</ele>
        <time>2011-09-08T08:39:35Z</time>
      </trkpt>
      <trkpt lat="42.34719" lon="8.6234">
        <ele>182.307129</ele>
        <time>2011-09-08T08:39:43Z</time>
      </trkpt>
      <trkpt lat="42.34729" lon="8.62332">
        <ele>181.826416</ele>
        <time>2011-09-08T08:39:53Z</time>
      </trkpt>
      <trkpt lat="42.34736" lon="8.62323">
        <ele>180.865234</ele>
        <time>2011-09-08T08:40:05Z</time>
      </trkpt>
      <trkpt lat="42.3475" lon="8.62318">
        <ele>179.423218</ele>
        <time>2011-09-08T08:40:20Z</time>
      </trkpt>
      <trkpt lat="42.34757" lon="8.62317">
        <ele>177.50061</ele>
        <time>2011-09-08T08:40:27Z</time>
      </trkpt>
      <trkpt lat="42.34761" lon="8.62316">
        <ele>177.02002</ele>
        <time>2011-09-08T08:40:31Z</time>
      </trkpt>
      <trkpt lat="42.34764" lon="8.62315">
        <ele>177.02002</ele>
        <time>2011-09-08T08:40:34Z</time>
      </trkpt>
      <trkpt lat="42.34766" lon="8.62314">
        <ele>176.539307</ele>
        <time>2011-09-08T08:40:36Z</time>
      </trkpt>
      <trkpt lat="42.34788" lon="8.62314">
        <ele>174.135864</ele>
        <time>2011-09-08T08:40:54Z</time>
      </trkpt>
      <trkpt lat="42.34808" lon="8.62311">
        <ele>172.69397</ele>
        <time>2011-09-08T08:41:10Z</time>
      </trkpt>
      <trkpt lat="42.34824" lon="8.62307">
        <ele>171.252075</ele>
        <time>2011-09-08T08:41:24Z</time>
      </trkpt>
      <trkpt lat="42.34826" lon="8.62295">
        <ele>168.848755</ele>
        <time>2011-09-08T08:41:33Z</time>
      </trkpt>
      <trkpt lat="42.34827" lon="8.62283">
        <ele>166.926025</ele>
        <time>2011-09-08T08:41:45Z</time>
      </trkpt>
      <trkpt lat="42.34828" lon="8.62271">
        <ele>165.964722</ele>
        <time>2011-09-08T08:41:54Z</time>
      </trkpt>
      <trkpt lat="42.34831" lon="8.62243">
        <ele>164.522705</ele>
        <time>2011-09-08T08:42:11Z</time>
      </trkpt>
      <trkpt lat="42.34836" lon="8.62216">
        <ele>163.080811</ele>
        <time>2011-09-08T08:42:28Z</time>
      </trkpt>
      <trkpt lat="42.34838" lon="8.62194">
        <ele>161.638916</ele>
        <time>2011-09-08T08:42:42Z</time>
      </trkpt>
      <trkpt lat="42.34842" lon="8.62177">
        <ele>161.158203</ele>
        <time>2011-09-08T08:42:52Z</time>
      </trkpt>
      <trkpt lat="42.34841" lon="8.62174">
        <ele>160.67749</ele>
        <time>2011-09-08T08:42:55Z</time>
      </trkpt>
      <trkpt lat="42.34843" lon="8.62168">
        <ele>160.196899</ele>
        <time>2011-09-08T08:43:00Z</time>
      </trkpt>
      <trkpt lat="42.34839" lon="8.62143">
        <ele>157.793579</ele>
        <time>2011-09-08T08:43:17Z</time>
      </trkpt>
      <trkpt lat="42.34836" lon="8.62121">
        <ele>154.909546</ele>
        <time>2011-09-08T08:43:32Z</time>
      </trkpt>
      <trkpt lat="42.34833" lon="8.62102">
        <ele>153.948364</ele>
        <time>2011-09-08T08:43:50Z</time>
      </trkpt>
      <trkpt lat="42.34833" lon="8.62103">
        <ele>153.467651</ele>
        <time>2011-09-08T08:44:08Z</time>
      </trkpt>
      <trkpt lat="42.34834" lon="8.62092">
        <ele>152.986938</ele>
        <time>2011-09-08T08:44:16Z</time>
      </trkpt>
      <trkpt lat="42.34843" lon="8.62083">
        <ele>152.025757</ele>
        <time>2011-09-08T08:44:27Z</time>
      </trkpt>
      <trkpt lat="42.34856" lon="8.62079">
        <ele>149.141602</ele>
        <time>2011-09-08T08:44:43Z</time>
      </trkpt>
      <trkpt lat="42.3487" lon="8.62079">
        <ele>146.738403</ele>
        <time>2011-09-08T08:44:58Z</time>
      </trkpt>
      <trkpt lat="42.34874" lon="8.62079">
        <ele>146.257812</ele>
        <time>2011-09-08T08:45:02Z</time>
      </trkpt>
      <trkpt lat="42.34887" lon="8.62082">
        <ele>143.373657</ele>
        <time>2011-09-08T08:45:18Z</time>
      </trkpt>
      <trkpt lat="42.34897" lon="8.62081">
        <ele>140.489868</ele>
        <time>2011-09-08T08:45:31Z</time>
      </trkpt>
      <trkpt lat="42.3491" lon="8.62082">
        <ele>137.605835</ele>
        <time>2011-09-08T08:45:47Z</time>
      </trkpt>
      <trkpt lat="42.34925" lon="8.62087">
        <ele>136.16394</ele>
        <time>2011-09-08T08:46:02Z</time>
      </trkpt>
      <trkpt lat="42.34938" lon="8.62085">
        <ele>134.721924</ele>
        <time>2011-09-08T08:46:16Z</time>
      </trkpt>
      <trkpt lat="42.3495" lon="8.62084">
        <ele>131.837891</ele>
        <time>2011-09-08T08:46:31Z</time>
      </trkpt>
      <trkpt lat="42.34952" lon="8.62083">
        <ele>131.837891</ele>
        <time>2011-09-08T08:46:32Z</time>
      </trkpt>
      <trkpt lat="42.34976" lon="8.62081">
        <ele>129.915283</ele>
        <time>2011-09-08T08:46:49Z</time>
      </trkpt>
      <trkpt lat="42.34997" lon="8.62078">
        <ele>127.992554</ele>
        <time>2011-09-08T08:47:06Z</time>
      </trkpt>
      <trkpt lat="42.35002" lon="8.62078">
        <ele>127.992554</ele>
        <time>2011-09-08T08:47:10Z</time>
      </trkpt>
      <trkpt lat="42.35008" lon="8.62077">
        <ele>127.511963</ele>
        <time>2011-09-08T08:47:15Z</time>
      </trkpt>
      <trkpt lat="42.35025" lon="8.62078">
        <ele>124.147339</ele>
        <time>2011-09-08T08:47:31Z</time>
      </trkpt>
      <trkpt lat="42.35032" lon="8.62072">
        <ele>123.186157</ele>
        <time>2011-09-08T08:47:43Z</time>
      </trkpt>
      <trkpt lat="42.35031" lon="8.62068">
        <ele>123.186157</ele>
        <time>2011-09-08T08:47:49Z</time>
      </trkpt>
      <trkpt lat="42.35025" lon="8.62065">
        <ele>122.224731</ele>
        <time>2011-09-08T08:47:55Z</time>
      </trkpt>
      <trkpt lat="42.35015" lon="8.62057">
        <ele>121.26355</ele>
        <time>2011-09-08T08:48:07Z</time>
      </trkpt>
      <trkpt lat="42.35004" lon="8.62053">
        <ele>118.860107</ele>
        <time>2011-09-08T08:48:19Z</time>
      </trkpt>
      <trkpt lat="42.34997" lon="8.62048">
        <ele>116.9375</ele>
        <time>2011-09-08T08:48:29Z</time>
      </trkpt>
      <trkpt lat="42.34987" lon="8.62043">
        <ele>115.495605</ele>
        <time>2011-09-08T08:48:43Z</time>
      </trkpt>
      <trkpt lat="42.34987" lon="8.62037">
        <ele>114.053589</ele>
        <time>2011-09-08T08:48:56Z</time>
      </trkpt>
      <trkpt lat="42.34988" lon="8.62035">
        <ele>114.053589</ele>
        <time>2011-09-08T08:48:59Z</time>
      </trkpt>
      <trkpt lat="42.34998" lon="8.62029">
        <ele>111.169556</ele>
        <time>2011-09-08T08:49:12Z</time>
      </trkpt>
      <trkpt lat="42.35" lon="8.62029">
        <ele>111.169556</ele>
        <time>2011-09-08T08:49:31Z</time>
      </trkpt>
      <trkpt lat="42.35003" lon="8.62027">
        <ele>111.169556</ele>
        <time>2011-09-08T08:49:34Z</time>
      </trkpt>
      <trkpt lat="42.35005" lon="8.62025">
        <ele>109.727661</ele>
        <time>2011-09-08T08:49:37Z</time>
      </trkpt>
      <trkpt lat="42.35011" lon="8.62021">
        <ele>107.324341</ele>
        <time>2011-09-08T08:49:47Z</time>
      </trkpt>
      <trkpt lat="42.35005" lon="8.62017">
        <ele>105.882446</ele>
        <time>2011-09-08T08:49:54Z</time>
      </trkpt>
      <trkpt lat="42.35015" lon="8.62013">
        <ele>104.921021</ele>
        <time>2011-09-08T08:50:02Z</time>
      </trkpt>
      <trkpt lat="42.35023" lon="8.62009">
        <ele>102.037109</ele>
        <time>2011-09-08T08:50:11Z</time>
      </trkpt>
      <trkpt lat="42.35038" lon="8.62005">
        <ele>100.114502</ele>
        <time>2011-09-08T08:50:25Z</time>
      </trkpt>
      <trkpt lat="42.35047" lon="8.62">
        <ele>97.711182</ele>
        <time>2011-09-08T08:50:40Z</time>
      </trkpt>
      <trkpt lat="42.35059" lon="8.61994">
        <ele>96.749878</ele>
        <time>2011-09-08T08:50:53Z</time>
      </trkpt>
      <trkpt lat="42.35072" lon="8.61988">
        <ele>96.269287</ele>
        <time>2011-09-08T08:51:03Z</time>
      </trkpt>
      <trkpt lat="42.35077" lon="8.61982">
        <ele>96.749878</ele>
        <time>2011-09-08T08:51:10Z</time>
      </trkpt>
      <trkpt lat="42.35079" lon="8.6197">
        <ele>97.711182</ele>
        <time>2011-09-08T08:51:18Z</time>
      </trkpt>
      <trkpt lat="42.35082" lon="8.61954">
        <ele>97.230469</ele>
        <time>2011-09-08T08:51:30Z</time>
      </trkpt>
      <trkpt lat="42.35084" lon="8.61949">
        <ele>96.749878</ele>
        <time>2011-09-08T08:51:35Z</time>
      </trkpt>
      <trkpt lat="42.35084" lon="8.61944">
        <ele>96.749878</ele>
        <time>2011-09-08T08:51:38Z</time>
      </trkpt>
      <trkpt lat="42.35085" lon="8.61921">
        <ele>94.346558</ele>
        <time>2011-09-08T08:51:54Z</time>
      </trkpt>
      <trkpt lat="42.35085" lon="8.61908">
        <ele>91.943237</ele>
        <time>2011-09-08T08:52:07Z</time>
      </trkpt>
      <trkpt lat="42.35086" lon="8.619">
        <ele>90.501343</ele>
        <time>2011-09-08T08:52:18Z</time>
      </trkpt>
      <trkpt lat="42.35087" lon="8.6189">
        <ele>90.02063</ele>
        <time>2011-09-08T08:52:25Z</time>
      </trkpt>
      <trkpt lat="42.35086" lon="8.61864">
        <ele>89.059326</ele>
        <time>2011-09-08T08:52:39Z</time>
      </trkpt>
      <trkpt lat="42.35088" lon="8.61858">
        <ele>89.539917</ele>
        <time>2011-09-08T08:52:43Z</time>
      </trkpt>
      <trkpt lat="42.35088" lon="8.61841">
        <ele>90.02063</ele>
        <time>2011-09-08T08:52:55Z</time>
      </trkpt>
      <trkpt lat="42.35085" lon="8.61828">
        <ele>88.578735</ele>
        <time>2011-09-08T08:53:04Z</time>
      </trkpt>
      <trkpt lat="42.35085" lon="8.61811">
        <ele>87.617188</ele>
        <time>2011-09-08T08:53:19Z</time>
      </trkpt>
      <trkpt lat="42.35086" lon="8.61799">
        <ele>85.213989</ele>
        <time>2011-09-08T08:53:33Z</time>
      </trkpt>
      <trkpt lat="42.35086" lon="8.61798">
        <ele>84.733398</ele>
        <time>2011-09-08T08:53:34Z</time>
      </trkpt>
      <trkpt lat="42.35085" lon="8.61776">
        <ele>82.330078</ele>
        <time>2011-09-08T08:53:51Z</time>
      </trkpt>
      <trkpt lat="42.3508" lon="8.6175">
        <ele>80.888184</ele>
        <time>2011-09-08T08:54:08Z</time>
      </trkpt>
      <trkpt lat="42.35078" lon="8.61739">
        <ele>78.965454</ele>
        <time>2011-09-08T08:54:20Z</time>
      </trkpt>
      <trkpt lat="42.35082" lon="8.61732">
        <ele>77.042847</ele>
        <time>2011-09-08T08:54:33Z</time>
      </trkpt>
      <trkpt lat="42.3508" lon="8.61728">
        <ele>76.562134</ele>
        <time>2011-09-08T08:54:48Z</time>
      </trkpt>
      <trkpt lat="42.35076" lon="8.61723">
        <ele>74.639526</ele>
        <time>2011-09-08T08:54:58Z</time>
      </trkpt>
      <trkpt lat="42.3506" lon="8.61716">
        <ele>71.755493</ele>
        <time>2011-09-08T08:55:16Z</time>
      </trkpt>
      <trkpt lat="42.35054" lon="8.61707">
        <ele>68.871582</ele>
        <time>2011-09-08T08:55:31Z</time>
      </trkpt>
      <trkpt lat="42.35047" lon="8.61691">
        <ele>67.429688</ele>
        <time>2011-09-08T08:55:48Z</time>
      </trkpt>
      <trkpt lat="42.35041" lon="8.61683">
        <ele>65.50708</ele>
        <time>2011-09-08T08:56:02Z</time>
      </trkpt>
      <trkpt lat="42.35034" lon="8.61675">
        <ele>62.622925</ele>
        <time>2011-09-08T08:56:16Z</time>
      </trkpt>
      <trkpt lat="42.35035" lon="8.61667">
        <ele>60.219727</ele>
        <time>2011-09-08T08:56:31Z</time>
      </trkpt>
      <trkpt lat="42.35035" lon="8.61661">
        <ele>59.258423</ele>
        <time>2011-09-08T08:56:37Z</time>
      </trkpt>
      <trkpt lat="42.35023" lon="8.61654">
        <ele>57.335815</ele>
        <time>2011-09-08T08:56:54Z</time>
      </trkpt>
      <trkpt lat="42.35017" lon="8.61645">
        <ele>55.413086</ele>
        <time>2011-09-08T08:57:10Z</time>
      </trkpt>
      <trkpt lat="42.35026" lon="8.61639">
        <ele>53.009766</ele>
        <time>2011-09-08T08:57:26Z</time>
      </trkpt>
      <trkpt lat="42.3503" lon="8.61636">
        <ele>50.606567</ele>
        <time>2011-09-08T08:57:37Z</time>
      </trkpt>
      <trkpt lat="42.35031" lon="8.61626">
        <ele>47.241821</ele>
        <time>2011-09-08T08:57:52Z</time>
      </trkpt>
      <trkpt lat="42.3503" lon="8.61626">
        <ele>47.722534</ele>
        <time>2011-09-08T08:57:53Z</time>
      </trkpt>
      <trkpt lat="42.35019" lon="8.61618">
        <ele>45.319214</ele>
        <time>2011-09-08T08:58:07Z</time>
      </trkpt>
      <trkpt lat="42.35011" lon="8.61612">
        <ele>44.358032</ele>
        <time>2011-09-08T08:58:20Z</time>
      </trkpt>
      <trkpt lat="42.35009" lon="8.61611">
        <ele>44.358032</ele>
        <time>2011-09-08T08:58:22Z</time>
      </trkpt>
      <trkpt lat="42.34999" lon="8.61601">
        <ele>42.916016</ele>
        <time>2011-09-08T08:58:36Z</time>
      </trkpt>
      <trkpt lat="42.34987" lon="8.61602">
        <ele>41.954712</ele>
        <time>2011-09-08T08:58:49Z</time>
      </trkpt>
      <trkpt lat="42.34981" lon="8.61601">
        <ele>41.473999</ele>
        <time>2011-09-08T08:58:56Z</time>
      </trkpt>
      <trkpt lat="42.34972" lon="8.61607">
        <ele>40.032104</ele>
        <time>2011-09-08T08:59:10Z</time>
      </trkpt>
      <trkpt lat="42.34975" lon="8.61591">
        <ele>36.186768</ele>
        <time>2011-09-08T08:59:27Z</time>
      </trkpt>
      <trkpt lat="42.34986" lon="8.61577">
        <ele>34.26416</ele>
        <time>2011-09-08T08:59:43Z</time>
      </trkpt>
      <trkpt lat="42.34991" lon="8.61576">
        <ele>33.783447</ele>
        <time>2011-09-08T09:00:03Z</time>
      </trkpt>
      <trkpt lat="42.34997" lon="8.61575">
        <ele>31.860718</ele>
        <time>2011-09-08T09:00:09Z</time>
      </trkpt>
      <trkpt lat="42.35002" lon="8.61569">
        <ele>29.93811</ele>
        <time>2011-09-08T09:00:18Z</time>
      </trkpt>
      <trkpt lat="42.34998" lon="8.61566">
        <ele>28.976929</ele>
        <time>2011-09-08T09:00:23Z</time>
      </trkpt>
      <trkpt lat="42.34988" lon="8.61559">
        <ele>27.054321</ele>
        <time>2011-09-08T09:00:36Z</time>
      </trkpt>
      <trkpt lat="42.34988" lon="8.61552">
        <ele>24.651001</ele>
        <time>2011-09-08T09:00:47Z</time>
      </trkpt>
      <trkpt lat="42.34995" lon="8.61548">
        <ele>23.208984</ele>
        <time>2011-09-08T09:00:56Z</time>
      </trkpt>
      <trkpt lat="42.35007" lon="8.61544">
        <ele>19.36377</ele>
        <time>2011-09-08T09:01:10Z</time>
      </trkpt>
      <trkpt lat="42.34998" lon="8.61538">
        <ele>17.921753</ele>
        <time>2011-09-08T09:01:23Z</time>
      </trkpt>
      <trkpt lat="42.34992" lon="8.6153">
        <ele>14.557007</ele>
        <time>2011-09-08T09:01:35Z</time>
      </trkpt>
      <trkpt lat="42.34984" lon="8.61526">
        <ele>14.076416</ele>
        <time>2011-09-08T09:01:50Z</time>
      </trkpt>
      <trkpt lat="42.34984" lon="8.61521">
        <ele>12.153809</ele>
        <time>2011-09-08T09:02:04Z</time>
      </trkpt>
      <trkpt lat="42.34997" lon="8.61517">
        <ele>9.75061</ele>
        <time>2011-09-08T09:02:18Z</time>
      </trkpt>
      <trkpt lat="42.34999" lon="8.615">
        <ele>8.789185</ele>
        <time>2011-09-08T09:02:29Z</time>
      </trkpt>
      <trkpt lat="42.35" lon="8.61475">
        <ele>8.789185</ele>
        <time>2011-09-08T09:02:44Z</time>
      </trkpt>
      <trkpt lat="42.35001" lon="8.61448">
        <ele>8.789185</ele>
        <time>2011-09-08T09:03:02Z</time>
      </trkpt>
      <trkpt lat="42.34996" lon="8.61418">
        <ele>9.269897</ele>
        <time>2011-09-08T09:03:22Z</time>
      </trkpt>
      <trkpt lat="42.34995" lon="8.61404">
        <ele>8.789185</ele>
        <time>2011-09-08T09:03:35Z</time>
      </trkpt>
      <trkpt lat="42.34988" lon="8.61385">
        <ele>8.308594</ele>
        <time>2011-09-08T09:03:53Z</time>
      </trkpt>
      <trkpt lat="42.34979" lon="8.61367">
        <ele>7.827881</ele>
        <time>2011-09-08T09:04:09Z</time>
      </trkpt>
      <trkpt lat="42.3497" lon="8.61335">
        <ele>8.308594</ele>
        <time>2011-09-08T09:04:31Z</time>
      </trkpt>
      <trkpt lat="42.34967" lon="8.6133">
        <ele>7.347168</ele>
        <time>2011-09-08T09:04:45Z</time>
      </trkpt>
      <trkpt lat="42.34962" lon="8.61322">
        <ele>7.827881</ele>
        <time>2011-09-08T09:04:59Z</time>
      </trkpt>
      <trkpt lat="42.34953" lon="8.61306">
        <ele>7.347168</ele>
        <time>2011-09-08T09:05:12Z</time>
      </trkpt>
      <trkpt lat="42.34937" lon="8.61286">
        <ele>7.347168</ele>
        <time>2011-09-08T09:05:31Z</time>
      </trkpt>
      <trkpt lat="42.34921" lon="8.61266">
        <ele>7.347168</ele>
        <time>2011-09-08T09:05:49Z</time>
      </trkpt>
      <trkpt lat="42.34914" lon="8.61256">
        <ele>7.347168</ele>
        <time>2011-09-08T09:06:03Z</time>
      </trkpt>
      <trkpt lat="42.34911" lon="8.61256">
        <ele>7.827881</ele>
        <time>2011-09-08T09:06:19Z</time>
      </trkpt>
      <trkpt lat="42.34909" lon="8.61256">
        <ele>7.827881</ele>
        <time>2011-09-08T09:06:39Z</time>
      </trkpt>
      <trkpt lat="42.34908" lon="8.61251">
        <ele>7.827881</ele>
        <time>2011-09-08T09:06:50Z</time>
      </trkpt>
      <trkpt lat="42.34901" lon="8.61236">
        <ele>8.308594</ele>
        <time>2011-09-08T09:07:04Z</time>
      </trkpt>
      <trkpt lat="42.34888" lon="8.61235">
        <ele>10.231201</ele>
        <time>2011-09-08T09:07:21Z</time>
      </trkpt>
      <trkpt lat="42.34885" lon="8.61238">
        <ele>11.673218</ele>
        <time>2011-09-08T09:07:26Z</time>
      </trkpt>
      <trkpt lat="42.34879" lon="8.61241">
        <ele>12.634399</ele>
        <time>2011-09-08T09:07:34Z</time>
      </trkpt>
      <trkpt lat="42.3487" lon="8.61249">
        <ele>15.03772</ele>
        <time>2011-09-08T09:07:51Z</time>
      </trkpt>
      <trkpt lat="42.34858" lon="8.61265">
        <ele>16.960449</ele>
        <time>2011-09-08T09:08:09Z</time>
      </trkpt>
      <trkpt lat="42.34852" lon="8.6127">
        <ele>16.479736</ele>
        <time>2011-09-08T09:08:24Z</time>
      </trkpt>
      <trkpt lat="42.34852" lon="8.61269">
        <ele>16.960449</ele>
        <time>2011-09-08T09:08:25Z</time>
      </trkpt>
      <trkpt lat="42.34859" lon="8.61261">
        <ele>16.479736</ele>
        <time>2011-09-08T09:08:41Z</time>
      </trkpt>
      <trkpt lat="42.3486" lon="8.61261">
        <ele>15.999023</ele>
        <time>2011-09-08T09:08:59Z</time>
      </trkpt>
      <trkpt lat="42.34854" lon="8.6126">
        <ele>18.883057</ele>
        <time>2011-09-08T09:09:20Z</time>
      </trkpt>
      <trkpt lat="42.34852" lon="8.61262">
        <ele>18.883057</ele>
        <time>2011-09-08T09:09:36Z</time>
      </trkpt>
      <trkpt lat="42.34848" lon="8.61265">
        <ele>18.402344</ele>
        <time>2011-09-08T09:09:55Z</time>
      </trkpt>
      <trkpt lat="42.34848" lon="8.61266">
        <ele>16.960449</ele>
        <time>2011-09-08T09:10:09Z</time>
      </trkpt>
      <trkpt lat="42.3485" lon="8.61271">
        <ele>16.960449</ele>
        <time>2011-09-08T09:10:36Z</time>
      </trkpt>
      <trkpt lat="42.3485" lon="8.61267">
        <ele>17.921753</ele>
        <time>2011-09-08T09:11:04Z</time>
      </trkpt>
      <trkpt lat="42.34851" lon="8.61266">
        <ele>17.441162</ele>
        <time>2011-09-08T09:11:28Z</time>
      </trkpt>
      <trkpt lat="42.34849" lon="8.61264">
        <ele>18.883057</ele>
        <time>2011-09-08T09:11:56Z</time>
      </trkpt>
      <trkpt lat="42.34849" lon="8.61264">
        <ele>17.441162</ele>
        <time>2011-09-08T09:11:58Z</time>
      </trkpt>
      <trkpt lat="42.34848" lon="8.61264">
        <ele>17.441162</ele>
        <time>2011-09-08T09:12:14Z</time>
      </trkpt>
      <trkpt lat="42.34849" lon="8.61264">
        <ele>17.921753</ele>
        <time>2011-09-08T09:12:19Z</time>
      </trkpt>
      <trkpt lat="42.34849" lon="8.61265">
        <ele>16.960449</ele>
        <time>2011-09-08T09:12:30Z</time>
      </trkpt>
      <trkpt lat="42.34849" lon="8.61265">
        <ele>17.441162</ele>
        <time>2011-09-08T09:12:32Z</time>
      </trkpt>
      <trkpt lat="42.34849" lon="8.61266">
        <ele>17.921753</ele>
        <time>2011-09-08T09:12:38Z</time>
      </trkpt>
      <trkpt lat="42.34848" lon="8.61268">
        <ele>16.479736</ele>
        <time>2011-09-08T09:14:16Z</time>
      </trkpt>
      <trkpt lat="42.34846" lon="8.61267">
        <ele>16.960449</ele>
        <time>2011-09-08T09:14:52Z</time>
      </trkpt>
      <trkpt lat="42.34846" lon="8.61269">
        <ele>16.960449</ele>
        <time>2011-09-08T09:15:41Z</time>
      </trkpt>
      <trkpt lat="42.34845" lon="8.61268">
        <ele>16.479736</ele>
        <time>2011-09-08T09:16:49Z</time>
      </trkpt>
      <trkpt lat="42.34845" lon="8.61266">
        <ele>15.999023</ele>
        <time>2011-09-08T09:18:23Z</time>
      </trkpt>
      <trkpt lat="42.34848" lon="8.61266">
        <ele>16.960449</ele>
        <time>2011-09-08T09:27:52Z</time>
      </trkpt>
      <trkpt lat="42.34848" lon="8.61264">
        <ele>16.479736</ele>
        <time>2011-09-08T09:28:13Z</time>
      </trkpt>
      <trkpt lat="42.34853" lon="8.6126">
        <ele>15.518433</ele>
        <time>2011-09-08T09:28:25Z</time>
      </trkpt>
      <trkpt lat="42.34853" lon="8.6126">
        <ele>15.518433</ele>
        <time>2011-09-08T09:28:26Z</time>
      </trkpt>
      <trkpt lat="42.34854" lon="8.6126">
        <ele>15.518433</ele>
        <time>2011-09-08T09:28:27Z</time>
      </trkpt>
      <trkpt lat="42.34865" lon="8.61255">
        <ele>13.595825</ele>
        <time>2011-09-08T09:28:42Z</time>
      </trkpt>
      <trkpt lat="42.34866" lon="8.61253">
        <ele>13.115112</ele>
        <time>2011-09-08T09:29:00Z</time>
      </trkpt>
      <trkpt lat="42.34866" lon="8.61241">
        <ele>12.634399</ele>
        <time>2011-09-08T09:29:16Z</time>
      </trkpt>
      <trkpt lat="42.34865" lon="8.61237">
        <ele>14.557007</ele>
        <time>2011-09-08T09:29:19Z</time>
      </trkpt>
      <trkpt lat="42.34862" lon="8.6122">
        <ele>17.441162</ele>
        <time>2011-09-08T09:29:33Z</time>
      </trkpt>
      <trkpt lat="42.34861" lon="8.61211">
        <ele>18.883057</ele>
        <time>2011-09-08T09:29:43Z</time>
      </trkpt>
      <trkpt lat="42.34862" lon="8.6121">
        <ele>18.402344</ele>
        <time>2011-09-08T09:29:44Z</time>
      </trkpt>
      <trkpt lat="42.34875" lon="8.61195">
        <ele>18.883057</ele>
        <time>2011-09-08T09:30:01Z</time>
      </trkpt>
      <trkpt lat="42.34886" lon="8.61177">
        <ele>20.324951</ele>
        <time>2011-09-08T09:30:20Z</time>
      </trkpt>
      <trkpt lat="42.34888" lon="8.61175">
        <ele>21.286377</ele>
        <time>2011-09-08T09:30:42Z</time>
      </trkpt>
      <trkpt lat="42.34889" lon="8.61171">
        <ele>21.286377</ele>
        <time>2011-09-08T09:31:05Z</time>
      </trkpt>
      <trkpt lat="42.34892" lon="8.61154">
        <ele>22.247559</ele>
        <time>2011-09-08T09:31:19Z</time>
      </trkpt>
      <trkpt lat="42.34895" lon="8.61149">
        <ele>22.247559</ele>
        <time>2011-09-08T09:31:25Z</time>
      </trkpt>
      <trkpt lat="42.34906" lon="8.61138">
        <ele>26.092896</ele>
        <time>2011-09-08T09:31:40Z</time>
      </trkpt>
      <trkpt lat="42.34917" lon="8.61129">
        <ele>28.976929</ele>
        <time>2011-09-08T09:31:54Z</time>
      </trkpt>
      <trkpt lat="42.34925" lon="8.61121">
        <ele>29.93811</ele>
        <time>2011-09-08T09:32:06Z</time>
      </trkpt>
      <trkpt lat="42.34925" lon="8.61115">
        <ele>30.418823</ele>
        <time>2011-09-08T09:32:20Z</time>
      </trkpt>
      <trkpt lat="42.34926" lon="8.61108">
        <ele>32.822266</ele>
        <time>2011-09-08T09:32:29Z</time>
      </trkpt>
      <trkpt lat="42.34931" lon="8.61086">
        <ele>34.744873</ele>
        <time>2011-09-08T09:32:46Z</time>
      </trkpt>
      <trkpt lat="42.34939" lon="8.61069">
        <ele>38.109375</ele>
        <time>2011-09-08T09:33:01Z</time>
      </trkpt>
      <trkpt lat="42.3494" lon="8.61057">
        <ele>39.55127</ele>
        <time>2011-09-08T09:33:11Z</time>
      </trkpt>
      <trkpt lat="42.34939" lon="8.61042">
        <ele>40.512817</ele>
        <time>2011-09-08T09:33:21Z</time>
      </trkpt>
      <trkpt lat="42.34937" lon="8.6103">
        <ele>40.512817</ele>
        <time>2011-09-08T09:33:36Z</time>
      </trkpt>
      <trkpt lat="42.34936" lon="8.61028">
        <ele>40.512817</ele>
        <time>2011-09-08T09:33:49Z</time>
      </trkpt>
      <trkpt lat="42.34939" lon="8.61032">
        <ele>40.032104</ele>
        <time>2011-09-08T09:34:00Z</time>
      </trkpt>
      <trkpt lat="42.34939" lon="8.61038">
        <ele>40.032104</ele>
        <time>2011-09-08T09:34:07Z</time>
      </trkpt>
      <trkpt lat="42.34938" lon="8.61059">
        <ele>39.55127</ele>
        <time>2011-09-08T09:34:25Z</time>
      </trkpt>
      <trkpt lat="42.3494" lon="8.61066">
        <ele>38.109375</ele>
        <time>2011-09-08T09:34:38Z</time>
      </trkpt>
      <trkpt lat="42.34931" lon="8.61084">
        <ele>34.744873</ele>
        <time>2011-09-08T09:34:57Z</time>
      </trkpt>
      <trkpt lat="42.34929" lon="8.61095">
        <ele>33.783447</ele>
        <time>2011-09-08T09:35:06Z</time>
      </trkpt>
      <trkpt lat="42.34921" lon="8.61106">
        <ele>31.860718</ele>
        <time>2011-09-08T09:35:22Z</time>
      </trkpt>
      <trkpt lat="42.34918" lon="8.61118">
        <ele>28.496216</ele>
        <time>2011-09-08T09:35:36Z</time>
      </trkpt>
      <trkpt lat="42.34911" lon="8.61129">
        <ele>27.054321</ele>
        <time>2011-09-08T09:35:55Z</time>
      </trkpt>
      <trkpt lat="42.3491" lon="8.61122">
        <ele>27.054321</ele>
        <time>2011-09-08T09:36:06Z</time>
      </trkpt>
      <trkpt lat="42.34908" lon="8.61131">
        <ele>25.612305</ele>
        <time>2011-09-08T09:36:31Z</time>
      </trkpt>
      <trkpt lat="42.34905" lon="8.61133">
        <ele>24.651001</ele>
        <time>2011-09-08T09:36:35Z</time>
      </trkpt>
      <trkpt lat="42.34902" lon="8.61137">
        <ele>24.170288</ele>
        <time>2011-09-08T09:36:51Z</time>
      </trkpt>
      <trkpt lat="42.34895" lon="8.61147">
        <ele>22.247559</ele>
        <time>2011-09-08T09:37:06Z</time>
      </trkpt>
      <trkpt lat="42.34893" lon="8.61148">
        <ele>22.247559</ele>
        <time>2011-09-08T09:37:32Z</time>
      </trkpt>
      <trkpt lat="42.3489" lon="8.61154">
        <ele>20.805664</ele>
        <time>2011-09-08T09:37:43Z</time>
      </trkpt>
      <trkpt lat="42.34891" lon="8.61161">
        <ele>19.36377</ele>
        <time>2011-09-08T09:37:50Z</time>
      </trkpt>
      <trkpt lat="42.34889" lon="8.61169">
        <ele>18.883057</ele>
        <time>2011-09-08T09:37:57Z</time>
      </trkpt>
      <trkpt lat="42.34886" lon="8.61172">
        <ele>18.402344</ele>
        <time>2011-09-08T09:38:01Z</time>
      </trkpt>
      <trkpt lat="42.34873" lon="8.61186">
        <ele>17.441162</ele>
        <time>2011-09-08T09:38:18Z</time>
      </trkpt>
      <trkpt lat="42.34869" lon="8.61191">
        <ele>17.441162</ele>
        <time>2011-09-08T09:38:23Z</time>
      </trkpt>
      <trkpt lat="42.34857" lon="8.61209">
        <ele>16.960449</ele>
        <time>2011-09-08T09:38:41Z</time>
      </trkpt>
      <trkpt lat="42.3486" lon="8.61224">
        <ele>15.999023</ele>
        <time>2011-09-08T09:38:55Z</time>
      </trkpt>
      <trkpt lat="42.3486" lon="8.61238">
        <ele>12.634399</ele>
        <time>2011-09-08T09:39:09Z</time>
      </trkpt>
      <trkpt lat="42.34872" lon="8.61242">
        <ele>9.75061</ele>
        <time>2011-09-08T09:39:24Z</time>
      </trkpt>
      <trkpt lat="42.34878" lon="8.61241">
        <ele>9.75061</ele>
        <time>2011-09-08T09:39:30Z</time>
      </trkpt>
      <trkpt lat="42.34886" lon="8.61241">
        <ele>9.75061</ele>
        <time>2011-09-08T09:39:38Z</time>
      </trkpt>
      <trkpt lat="42.34899" lon="8.61239">
        <ele>7.827881</ele>
        <time>2011-09-08T09:39:55Z</time>
      </trkpt>
      <trkpt lat="42.34899" lon="8.6124">
        <ele>6.866455</ele>
        <time>2011-09-08T09:39:56Z</time>
      </trkpt>
      <trkpt lat="42.34901" lon="8.61243">
        <ele>7.347168</ele>
        <time>2011-09-08T09:40:11Z</time>
      </trkpt>
      <trkpt lat="42.34903" lon="8.61243">
        <ele>7.827881</ele>
        <time>2011-09-08T09:40:29Z</time>
      </trkpt>
      <trkpt lat="42.34912" lon="8.61256">
        <ele>5.424561</ele>
        <time>2011-09-08T09:40:47Z</time>
      </trkpt>
      <trkpt lat="42.34914" lon="8.61258">
        <ele>6.385864</ele>
        <time>2011-09-08T09:40:58Z</time>
      </trkpt>
      <trkpt lat="42.3492" lon="8.61266">
        <ele>6.866455</ele>
        <time>2011-09-08T09:41:09Z</time>
      </trkpt>
      <trkpt lat="42.34925" lon="8.61272">
        <ele>6.385864</ele>
        <time>2011-09-08T09:41:23Z</time>
      </trkpt>
      <trkpt lat="42.34925" lon="8.61273">
        <ele>5.905273</ele>
        <time>2011-09-08T09:41:42Z</time>
      </trkpt>
      <trkpt lat="42.34927" lon="8.6128">
        <ele>4.943848</ele>
        <time>2011-09-08T09:41:54Z</time>
      </trkpt>
      <trkpt lat="42.3493" lon="8.61285">
        <ele>5.905273</ele>
        <time>2011-09-08T09:42:04Z</time>
      </trkpt>
      <trkpt lat="42.34932" lon="8.61288">
        <ele>6.385864</ele>
        <time>2011-09-08T09:42:07Z</time>
      </trkpt>
      <trkpt lat="42.34948" lon="8.61306">
        <ele>6.385864</ele>
        <time>2011-09-08T09:42:28Z</time>
      </trkpt>
      <trkpt lat="42.34963" lon="8.61325">
        <ele>6.385864</ele>
        <time>2011-09-08T09:42:47Z</time>
      </trkpt>
      <trkpt lat="42.34969" lon="8.61351">
        <ele>5.905273</ele>
        <time>2011-09-08T09:43:06Z</time>
      </trkpt>
      <trkpt lat="42.34981" lon="8.61382">
        <ele>5.905273</ele>
        <time>2011-09-08T09:43:30Z</time>
      </trkpt>
      <trkpt lat="42.34994" lon="8.61411">
        <ele>5.905273</ele>
        <time>2011-09-08T09:43:52Z</time>
      </trkpt>
      <trkpt lat="42.35001" lon="8.61439">
        <ele>6.385864</ele>
        <time>2011-09-08T09:44:12Z</time>
      </trkpt>
      <trkpt lat="42.35002" lon="8.61441">
        <ele>5.905273</ele>
        <time>2011-09-08T09:44:14Z</time>
      </trkpt>
      <trkpt lat="42.35011" lon="8.61465">
        <ele>5.905273</ele>
        <time>2011-09-08T09:44:32Z</time>
      </trkpt>
      <trkpt lat="42.35008" lon="8.61482">
        <ele>5.424561</ele>
        <time>2011-09-08T09:44:47Z</time>
      </trkpt>
      <trkpt lat="42.35001" lon="8.61507">
        <ele>5.905273</ele>
        <time>2011-09-08T09:45:06Z</time>
      </trkpt>
      <trkpt lat="42.34995" lon="8.6152">
        <ele>8.789185</ele>
        <time>2011-09-08T09:45:22Z</time>
      </trkpt>
      <trkpt lat="42.34986" lon="8.61529">
        <ele>11.673218</ele>
        <time>2011-09-08T09:45:41Z</time>
      </trkpt>
      <trkpt lat="42.34982" lon="8.61533">
        <ele>12.634399</ele>
        <time>2011-09-08T09:45:55Z</time>
      </trkpt>
      <trkpt lat="42.34972" lon="8.61538">
        <ele>14.557007</ele>
        <time>2011-09-08T09:46:10Z</time>
      </trkpt>
      <trkpt lat="42.34971" lon="8.61538">
        <ele>15.518433</ele>
        <time>2011-09-08T09:46:12Z</time>
      </trkpt>
      <trkpt lat="42.34961" lon="8.61548">
        <ele>17.921753</ele>
        <time>2011-09-08T09:46:28Z</time>
      </trkpt>
      <trkpt lat="42.34957" lon="8.6155">
        <ele>17.921753</ele>
        <time>2011-09-08T09:46:33Z</time>
      </trkpt>
      <trkpt lat="42.34952" lon="8.61555">
        <ele>18.883057</ele>
        <time>2011-09-08T09:46:39Z</time>
      </trkpt>
      <trkpt lat="42.34947" lon="8.61567">
        <ele>20.324951</ele>
        <time>2011-09-08T09:46:54Z</time>
      </trkpt>
      <trkpt lat="42.34939" lon="8.6158">
        <ele>20.805664</ele>
        <time>2011-09-08T09:47:08Z</time>
      </trkpt>
      <trkpt lat="42.34938" lon="8.61582">
        <ele>20.324951</ele>
        <time>2011-09-08T09:47:10Z</time>
      </trkpt>
      <trkpt lat="42.34935" lon="8.6161">
        <ele>22.247559</ele>
        <time>2011-09-08T09:47:29Z</time>
      </trkpt>
      <trkpt lat="42.34939" lon="8.61634">
        <ele>23.208984</ele>
        <time>2011-09-08T09:47:46Z</time>
      </trkpt>
      <trkpt lat="42.3494" lon="8.61638">
        <ele>23.208984</ele>
        <time>2011-09-08T09:47:49Z</time>
      </trkpt>
      <trkpt lat="42.34943" lon="8.61645">
        <ele>22.728271</ele>
        <time>2011-09-08T09:48:03Z</time>
      </trkpt>
      <trkpt lat="42.34941" lon="8.61652">
        <ele>21.286377</ele>
        <time>2011-09-08T09:48:20Z</time>
      </trkpt>
      <trkpt lat="42.3494" lon="8.61654">
        <ele>20.324951</ele>
        <time>2011-09-08T09:48:24Z</time>
      </trkpt>
      <trkpt lat="42.34933" lon="8.61662">
        <ele>17.921753</ele>
        <time>2011-09-08T09:48:41Z</time>
      </trkpt>
      <trkpt lat="42.3493" lon="8.61667">
        <ele>15.999023</ele>
        <time>2011-09-08T09:48:54Z</time>
      </trkpt>
      <trkpt lat="42.34926" lon="8.61669">
        <ele>12.634399</ele>
        <time>2011-09-08T09:49:13Z</time>
      </trkpt>
      <trkpt lat="42.34923" lon="8.61667">
        <ele>11.673218</ele>
        <time>2011-09-08T09:49:25Z</time>
      </trkpt>
      <trkpt lat="42.34922" lon="8.61665">
        <ele>11.192505</ele>
        <time>2011-09-08T09:49:42Z</time>
      </trkpt>
      <trkpt lat="42.3492" lon="8.61667">
        <ele>9.75061</ele>
        <time>2011-09-08T09:49:55Z</time>
      </trkpt>
      <trkpt lat="42.34915" lon="8.61666">
        <ele>7.347168</ele>
        <time>2011-09-08T09:50:08Z</time>
      </trkpt>
      <trkpt lat="42.34914" lon="8.61665">
        <ele>6.866455</ele>
        <time>2011-09-08T09:50:27Z</time>
      </trkpt>
      <trkpt lat="42.34915" lon="8.61663">
        <ele>6.385864</ele>
        <time>2011-09-08T09:50:40Z</time>
      </trkpt>
      <trkpt lat="42.34913" lon="8.61659">
        <ele>4.463257</ele>
        <time>2011-09-08T09:50:54Z</time>
      </trkpt>
      <trkpt lat="42.34915" lon="8.61657">
        <ele>4.463257</ele>
        <time>2011-09-08T09:51:05Z</time>
      </trkpt>
      <trkpt lat="42.34916" lon="8.61657">
        <ele>4.943848</ele>
        <time>2011-09-08T09:51:17Z</time>
      </trkpt>
      <trkpt lat="42.34915" lon="8.61656">
        <ele>3.982666</ele>
        <time>2011-09-08T09:51:39Z</time>
      </trkpt>
      <trkpt lat="42.34915" lon="8.61656">
        <ele>3.982666</ele>
        <time>2011-09-08T09:52:32Z</time>
      </trkpt>
      <trkpt lat="42.34914" lon="8.6166">
        <ele>3.982666</ele>
        <time>2011-09-08T09:53:21Z</time>
      </trkpt>
      <trkpt lat="42.34914" lon="8.61661">
        <ele>4.463257</ele>
        <time>2011-09-08T09:53:32Z</time>
      </trkpt>
      <trkpt lat="42.34901" lon="8.61637">
        <ele>7.827881</ele>
        <time>2011-09-08T09:55:41Z</time>
      </trkpt>
      <trkpt lat="42.34903" lon="8.61647">
        <ele>9.75061</ele>
        <time>2011-09-08T09:57:11Z</time>
      </trkpt>
      <trkpt lat="42.34903" lon="8.61647">
        <ele>9.269897</ele>
        <time>2011-09-08T09:57:46Z</time>
      </trkpt>
      <trkpt lat="42.34902" lon="8.61642">
        <ele>11.192505</ele>
        <time>2011-09-08T09:59:17Z</time>
      </trkpt>
      <trkpt lat="42.34893" lon="8.61632">
        <ele>14.557007</ele>
        <time>2011-09-08T10:00:25Z</time>
      </trkpt>
      <trkpt lat="42.34899" lon="8.6164">
        <ele>15.03772</ele>
        <time>2011-09-08T10:00:55Z</time>
      </trkpt>
      <trkpt lat="42.34902" lon="8.61644">
        <ele>16.479736</ele>
        <time>2011-09-08T10:02:20Z</time>
      </trkpt>
      <trkpt lat="42.34898" lon="8.61639">
        <ele>17.441162</ele>
        <time>2011-09-08T10:03:01Z</time>
      </trkpt>
      <trkpt lat="42.34906" lon="8.61648">
        <ele>18.883057</ele>
        <time>2011-09-08T10:03:58Z</time>
      </trkpt>
      <trkpt lat="42.34915" lon="8.61662">
        <ele>18.402344</ele>
        <time>2011-09-08T10:04:33Z</time>
      </trkpt>
      <trkpt lat="42.34904" lon="8.61649">
        <ele>18.402344</ele>
        <time>2011-09-08T10:05:48Z</time>
      </trkpt>
      <trkpt lat="42.34902" lon="8.61643">
        <ele>17.921753</ele>
        <time>2011-09-08T10:06:16Z</time>
      </trkpt>
      <trkpt lat="42.34907" lon="8.61631">
        <ele>19.84436</ele>
        <time>2011-09-08T10:07:46Z</time>
      </trkpt>
      <trkpt lat="42.34906" lon="8.61633">
        <ele>19.36377</ele>
        <time>2011-09-08T10:08:27Z</time>
      </trkpt>
      <trkpt lat="42.34901" lon="8.61644">
        <ele>19.84436</ele>
        <time>2011-09-08T10:09:08Z</time>
      </trkpt>
      <trkpt lat="42.34902" lon="8.61639">
        <ele>20.805664</ele>
        <time>2011-09-08T10:09:52Z</time>
      </trkpt>
      <trkpt lat="42.34906" lon="8.61635">
        <ele>21.286377</ele>
        <time>2011-09-08T10:10:16Z</time>
      </trkpt>
      <trkpt lat="42.34897" lon="8.6162">
        <ele>22.247559</ele>
        <time>2011-09-08T10:10:51Z</time>
      </trkpt>
      <trkpt lat="42.34908" lon="8.61635">
        <ele>25.612305</ele>
        <time>2011-09-08T10:11:56Z</time>
      </trkpt>
      <trkpt lat="42.34908" lon="8.61642">
        <ele>24.170288</ele>
        <time>2011-09-08T10:12:21Z</time>
      </trkpt>
      <trkpt lat="42.34906" lon="8.61643">
        <ele>23.689575</ele>
        <time>2011-09-08T10:22:40Z</time>
      </trkpt>
      <trkpt lat="42.34905" lon="8.61645">
        <ele>23.689575</ele>
        <time>2011-09-08T10:23:06Z</time>
      </trkpt>
      <trkpt lat="42.34907" lon="8.61646">
        <ele>23.689575</ele>
        <time>2011-09-08T10:23:36Z</time>
      </trkpt>
      <trkpt lat="42.34908" lon="8.61648">
        <ele>24.170288</ele>
        <time>2011-09-08T10:24:06Z</time>
      </trkpt>
      <trkpt lat="42.3491" lon="8.61644">
        <ele>25.612305</ele>
        <time>2011-09-08T10:27:49Z</time>
      </trkpt>
      <trkpt lat="42.34902" lon="8.61632">
        <ele>27.534912</ele>
        <time>2011-09-08T10:29:40Z</time>
      </trkpt>
      <trkpt lat="42.3491" lon="8.61636">
        <ele>30.418823</ele>
        <time>2011-09-08T10:35:20Z</time>
      </trkpt>
      <trkpt lat="42.34907" lon="8.61636">
        <ele>33.302856</ele>
        <time>2011-09-08T10:43:34Z</time>
      </trkpt>
      <trkpt lat="42.34913" lon="8.61641">
        <ele>31.380127</ele>
        <time>2011-09-08T10:46:33Z</time>
      </trkpt>
      <trkpt lat="42.34922" lon="8.61639">
        <ele>32.341553</ele>
        <time>2011-09-08T10:46:46Z</time>
      </trkpt>
      <trkpt lat="42.34915" lon="8.61644">
        <ele>32.341553</ele>
        <time>2011-09-08T10:51:43Z</time>
      </trkpt>
      <trkpt lat="42.34915" lon="8.61635">
        <ele>31.860718</ele>
        <time>2011-09-08T10:52:31Z</time>
      </trkpt>
      <trkpt lat="42.34915" lon="8.6163">
        <ele>31.380127</ele>
        <time>2011-09-08T10:54:25Z</time>
      </trkpt>
      <trkpt lat="42.34917" lon="8.61625">
        <ele>31.380127</ele>
        <time>2011-09-08T10:54:50Z</time>
      </trkpt>
      <trkpt lat="42.34916" lon="8.6163">
        <ele>31.860718</ele>
        <time>2011-09-08T10:55:27Z</time>
      </trkpt>
      <trkpt lat="42.34917" lon="8.6162">
        <ele>32.822266</ele>
        <time>2011-09-08T10:57:10Z</time>
      </trkpt>
      <trkpt lat="42.34912" lon="8.61632">
        <ele>33.783447</ele>
        <time>2011-09-08T10:57:38Z</time>
      </trkpt>
      <trkpt lat="42.34912" lon="8.61646">
        <ele>33.783447</ele>
        <time>2011-09-08T10:59:16Z</time>
      </trkpt>
      <trkpt lat="42.34915" lon="8.61647">
        <ele>33.783447</ele>
        <time>2011-09-08T10:59:55Z</time>
      </trkpt>
      <trkpt lat="42.34915" lon="8.61642">
        <ele>33.302856</ele>
        <time>2011-09-08T11:00:20Z</time>
      </trkpt>
      <trkpt lat="42.34915" lon="8.6164">
        <ele>33.302856</ele>
        <time>2011-09-08T11:01:20Z</time>
      </trkpt>
      <trkpt lat="42.34914" lon="8.61643">
        <ele>33.783447</ele>
        <time>2011-09-08T11:01:55Z</time>
      </trkpt>
      <trkpt lat="42.34912" lon="8.61649">
        <ele>33.783447</ele>
        <time>2011-09-08T11:02:18Z</time>
      </trkpt>
      <trkpt lat="42.34915" lon="8.61639">
        <ele>33.302856</ele>
        <time>2011-09-08T11:02:42Z</time>
      </trkpt>
      <trkpt lat="42.34914" lon="8.6164">
        <ele>33.302856</ele>
        <time>2011-09-08T11:03:08Z</time>
      </trkpt>
      <trkpt lat="42.34915" lon="8.61633">
        <ele>33.302856</ele>
        <time>2011-09-08T11:03:33Z</time>
      </trkpt>
      <trkpt lat="42.34915" lon="8.61639">
        <ele>33.783447</ele>
        <time>2011-09-08T11:04:26Z</time>
      </trkpt>
      <trkpt lat="42.34913" lon="8.61652">
        <ele>33.302856</ele>
        <time>2011-09-08T11:04:51Z</time>
      </trkpt>
      <trkpt lat="42.34914" lon="8.61649">
        <ele>33.783447</ele>
        <time>2011-09-08T11:05:19Z</time>
      </trkpt>
      <trkpt lat="42.34915" lon="8.6164">
        <ele>33.302856</ele>
        <time>2011-09-08T11:05:43Z</time>
      </trkpt>
      <trkpt lat="42.34912" lon="8.61653">
        <ele>32.822266</ele>
        <time>2011-09-08T11:06:02Z</time>
      </trkpt>
      <trkpt lat="42.34915" lon="8.61639">
        <ele>32.822266</ele>
        <time>2011-09-08T11:06:46Z</time>
      </trkpt>
      <trkpt lat="42.34917" lon="8.61629">
        <ele>32.341553</ele>
        <time>2011-09-08T11:08:12Z</time>
      </trkpt>
      <trkpt lat="42.34915" lon="8.61628">
        <ele>32.822266</ele>
        <time>2011-09-08T11:08:28Z</time>
      </trkpt>
      <trkpt lat="42.34921" lon="8.61599">
        <ele>33.783447</ele>
        <time>2011-09-08T11:09:05Z</time>
      </trkpt>
      <trkpt lat="42.34911" lon="8.61615">
        <ele>33.302856</ele>
        <time>2011-09-08T11:09:33Z</time>
      </trkpt>
      <trkpt lat="42.34912" lon="8.61621">
        <ele>33.302856</ele>
        <time>2011-09-08T11:10:11Z</time>
      </trkpt>
      <trkpt lat="42.3491" lon="8.61639">
        <ele>33.783447</ele>
        <time>2011-09-08T11:10:37Z</time>
      </trkpt>
      <trkpt lat="42.34908" lon="8.61648">
        <ele>33.302856</ele>
        <time>2011-09-08T11:10:58Z</time>
      </trkpt>
      <trkpt lat="42.34909" lon="8.61646">
        <ele>32.822266</ele>
        <time>2011-09-08T11:11:22Z</time>
      </trkpt>
      <trkpt lat="42.34909" lon="8.61644">
        <ele>32.341553</ele>
        <time>2011-09-08T11:11:41Z</time>
      </trkpt>
      <trkpt lat="42.34912" lon="8.61635">
        <ele>31.380127</ele>
        <time>2011-09-08T11:11:59Z</time>
      </trkpt>
      <trkpt lat="42.34912" lon="8.61635">
        <ele>35.706055</ele>
        <time>2011-09-08T11:12:02Z</time>
      </trkpt>
      <trkpt lat="42.34912" lon="8.61634">
        <ele>32.822266</ele>
        <time>2011-09-08T11:12:04Z</time>
      </trkpt>
      <trkpt lat="42.34912" lon="8.61646">
        <ele>32.341553</ele>
        <time>2011-09-08T11:12:57Z</time>
      </trkpt>
      <trkpt lat="42.34912" lon="8.61646">
        <ele>28.496216</ele>
        <time>2011-09-08T11:13:11Z</time>
      </trkpt>
      <trkpt lat="42.34912" lon="8.61646">
        <ele>32.822266</ele>
        <time>2011-09-08T11:13:12Z</time>
      </trkpt>
      <trkpt lat="42.34914" lon="8.6163">
        <ele>32.341553</ele>
        <time>2011-09-08T11:13:54Z</time>
      </trkpt>
      <trkpt lat="42.34912" lon="8.61645">
        <ele>31.860718</ele>
        <time>2011-09-08T11:15:23Z</time>
      </trkpt>
      <trkpt lat="42.34911" lon="8.61658">
        <ele>32.341553</ele>
        <time>2011-09-08T11:15:58Z</time>
      </trkpt>
      <trkpt lat="42.3491" lon="8.61669">
        <ele>31.380127</ele>
        <time>2011-09-08T11:16:25Z</time>
      </trkpt>
      <trkpt lat="42.34911" lon="8.61656">
        <ele>30.899536</ele>
        <time>2011-09-08T11:17:01Z</time>
      </trkpt>
      <trkpt lat="42.34913" lon="8.61647">
        <ele>30.418823</ele>
        <time>2011-09-08T11:17:55Z</time>
      </trkpt>
      <trkpt lat="42.34913" lon="8.61634">
        <ele>30.418823</ele>
        <time>2011-09-08T11:18:28Z</time>
      </trkpt>
      <trkpt lat="42.34913" lon="8.61633">
        <ele>30.418823</ele>
        <time>2011-09-08T11:19:00Z</time>
      </trkpt>
      <trkpt lat="42.34913" lon="8.61638">
        <ele>30.418823</ele>
        <time>2011-09-08T11:19:31Z</time>
      </trkpt>
      <trkpt lat="42.34912" lon="8.61646">
        <ele>30.418823</ele>
        <time>2011-09-08T11:20:14Z</time>
      </trkpt>
      <trkpt lat="42.34911" lon="8.61646">
        <ele>29.93811</ele>
        <time>2011-09-08T11:21:04Z</time>
      </trkpt>
      <trkpt lat="42.34912" lon="8.61635">
        <ele>30.418823</ele>
        <time>2011-09-08T11:21:34Z</time>
      </trkpt>
      <trkpt lat="42.34912" lon="8.61646">
        <ele>30.418823</ele>
        <time>2011-09-08T11:22:12Z</time>
      </trkpt>
      <trkpt lat="42.34913" lon="8.61639">
        <ele>30.418823</ele>
        <time>2011-09-08T11:22:36Z</time>
      </trkpt>
      <trkpt lat="42.34913" lon="8.61645">
        <ele>29.93811</ele>
        <time>2011-09-08T11:22:43Z</time>
      </trkpt>
      <trkpt lat="42.34913" lon="8.61654">
        <ele>28.976929</ele>
        <time>2011-09-08T11:22:59Z</time>
      </trkpt>
      <trkpt lat="42.34913" lon="8.6166">
        <ele>28.496216</ele>
        <time>2011-09-08T11:23:25Z</time>
      </trkpt>
      <trkpt lat="42.34903" lon="8.61666">
        <ele>27.534912</ele>
        <time>2011-09-08T11:24:02Z</time>
      </trkpt>
      <trkpt lat="42.3491" lon="8.61659">
        <ele>26.573608</ele>
        <time>2011-09-08T11:25:07Z</time>
      </trkpt>
      <trkpt lat="42.34912" lon="8.61659">
        <ele>24.651001</ele>
        <time>2011-09-08T11:26:49Z</time>
      </trkpt>
      <trkpt lat="42.34913" lon="8.61659">
        <ele>24.170288</ele>
        <time>2011-09-08T11:27:22Z</time>
      </trkpt>
      <trkpt lat="42.34915" lon="8.61658">
        <ele>23.689575</ele>
        <time>2011-09-08T11:27:51Z</time>
      </trkpt>
      <trkpt lat="42.34915" lon="8.61656">
        <ele>24.651001</ele>
        <time>2011-09-08T11:28:08Z</time>
      </trkpt>
      <trkpt lat="42.34914" lon="8.61662">
        <ele>24.170288</ele>
        <time>2011-09-08T11:29:16Z</time>
      </trkpt>
      <trkpt lat="42.34912" lon="8.61654">
        <ele>25.612305</ele>
        <time>2011-09-08T11:29:42Z</time>
      </trkpt>
      <trkpt lat="42.34913" lon="8.61658">
        <ele>25.131714</ele>
        <time>2011-09-08T11:30:15Z</time>
      </trkpt>
      <trkpt lat="42.34911" lon="8.61638">
        <ele>24.651001</ele>
        <time>2011-09-08T11:31:51Z</time>
      </trkpt>
      <trkpt lat="42.34914" lon="8.61671">
        <ele>23.689575</ele>
        <time>2011-09-08T11:32:18Z</time>
      </trkpt>
      <trkpt lat="42.34911" lon="8.61656">
        <ele>23.689575</ele>
        <time>2011-09-08T11:32:46Z</time>
      </trkpt>
      <trkpt lat="42.34911" lon="8.61635">
        <ele>23.208984</ele>
        <time>2011-09-08T11:33:55Z</time>
      </trkpt>
      <trkpt lat="42.34913" lon="8.61655">
        <ele>23.208984</ele>
        <time>2011-09-08T11:34:17Z</time>
      </trkpt>
      <trkpt lat="42.34911" lon="8.61659">
        <ele>22.728271</ele>
        <time>2011-09-08T11:34:51Z</time>
      </trkpt>
      <trkpt lat="42.3491" lon="8.61651">
        <ele>20.805664</ele>
        <time>2011-09-08T11:38:18Z</time>
      </trkpt>
      <trkpt lat="42.3491" lon="8.61645">
        <ele>20.324951</ele>
        <time>2011-09-08T11:38:44Z</time>
      </trkpt>
      <trkpt lat="42.34912" lon="8.6166">
        <ele>20.324951</ele>
        <time>2011-09-08T11:39:31Z</time>
      </trkpt>
      <trkpt lat="42.34911" lon="8.6166">
        <ele>19.84436</ele>
        <time>2011-09-08T11:40:39Z</time>
      </trkpt>
      <trkpt lat="42.3491" lon="8.61659">
        <ele>19.36377</ele>
        <time>2011-09-08T11:41:09Z</time>
      </trkpt>
      <trkpt lat="42.34909" lon="8.6165">
        <ele>18.883057</ele>
        <time>2011-09-08T11:41:43Z</time>
      </trkpt>
      <trkpt lat="42.34909" lon="8.61648">
        <ele>18.883057</ele>
        <time>2011-09-08T11:42:31Z</time>
      </trkpt>
      <trkpt lat="42.34911" lon="8.61655">
        <ele>18.883057</ele>
        <time>2011-09-08T11:42:56Z</time>
      </trkpt>
      <trkpt lat="42.34911" lon="8.6166">
        <ele>18.883057</ele>
        <time>2011-09-08T11:44:03Z</time>
      </trkpt>
      <trkpt lat="42.34911" lon="8.61659">
        <ele>17.441162</ele>
        <time>2011-09-08T11:45:50Z</time>
      </trkpt>
      <trkpt lat="42.3491" lon="8.61657">
        <ele>17.921753</ele>
        <time>2011-09-08T11:46:29Z</time>
      </trkpt>
      <trkpt lat="42.34916" lon="8.61661">
        <ele>16.960449</ele>
        <time>2011-09-08T11:47:47Z</time>
      </trkpt>
      <trkpt lat="42.3492" lon="8.61662">
        <ele>16.479736</ele>
        <time>2011-09-08T11:50:06Z</time>
      </trkpt>
      <trkpt lat="42.34916" lon="8.61658">
        <ele>15.999023</ele>
        <time>2011-09-08T11:51:30Z</time>
      </trkpt>
      <trkpt lat="42.34919" lon="8.61667">
        <ele>15.03772</ele>
        <time>2011-09-08T11:52:39Z</time>
      </trkpt>
      <trkpt lat="42.34912" lon="8.61656">
        <ele>15.03772</ele>
        <time>2011-09-08T11:53:08Z</time>
      </trkpt>
      <trkpt lat="42.34917" lon="8.61657">
        <ele>13.595825</ele>
        <time>2011-09-08T11:54:54Z</time>
      </trkpt>
      <trkpt lat="42.34921" lon="8.61661">
        <ele>12.634399</ele>
        <time>2011-09-08T11:57:06Z</time>
      </trkpt>
      <trkpt lat="42.34906" lon="8.61623">
        <ele>12.634399</ele>
        <time>2011-09-08T11:58:38Z</time>
      </trkpt>
      <trkpt lat="42.34918" lon="8.61659">
        <ele>13.115112</ele>
        <time>2011-09-08T11:59:11Z</time>
      </trkpt>
      <trkpt lat="42.34919" lon="8.61663">
        <ele>12.634399</ele>
        <time>2011-09-08T11:59:26Z</time>
      </trkpt>
      <trkpt lat="42.3492" lon="8.61655">
        <ele>12.634399</ele>
        <time>2011-09-08T12:00:37Z</time>
      </trkpt>
      <trkpt lat="42.34918" lon="8.61657">
        <ele>12.153809</ele>
        <time>2011-09-08T12:01:30Z</time>
      </trkpt>
      <trkpt lat="42.34917" lon="8.61657">
        <ele>11.673218</ele>
        <time>2011-09-08T12:02:01Z</time>
      </trkpt>
      <trkpt lat="42.34918" lon="8.61648">
        <ele>11.673218</ele>
        <time>2011-09-08T12:02:56Z</time>
      </trkpt>
      <trkpt lat="42.34919" lon="8.61652">
        <ele>12.153809</ele>
        <time>2011-09-08T12:03:33Z</time>
      </trkpt>
      <trkpt lat="42.34922" lon="8.61653">
        <ele>12.153809</ele>
        <time>2011-09-08T12:04:21Z</time>
      </trkpt>
      <trkpt lat="42.34919" lon="8.61648">
        <ele>12.153809</ele>
        <time>2011-09-08T12:07:28Z</time>
      </trkpt>
      <trkpt lat="42.34922" lon="8.61655">
        <ele>12.153809</ele>
        <time>2011-09-08T12:08:05Z</time>
      </trkpt>
      <trkpt lat="42.34922" lon="8.61656">
        <ele>11.673218</ele>
        <time>2011-09-08T12:08:34Z</time>
      </trkpt>
      <trkpt lat="42.34912" lon="8.61646">
        <ele>11.673218</ele>
        <time>2011-09-08T12:08:59Z</time>
      </trkpt>
      <trkpt lat="42.3492" lon="8.61649">
        <ele>12.153809</ele>
        <time>2011-09-08T12:10:01Z</time>
      </trkpt>
      <trkpt lat="42.34923" lon="8.61653">
        <ele>11.673218</ele>
        <time>2011-09-08T12:10:38Z</time>
      </trkpt>
      <trkpt lat="42.3493" lon="8.6165">
        <ele>11.673218</ele>
        <time>2011-09-08T12:11:27Z</time>
      </trkpt>
      <trkpt lat="42.34926" lon="8.61651">
        <ele>11.673218</ele>
        <time>2011-09-08T12:12:02Z</time>
      </trkpt>
      <trkpt lat="42.34923" lon="8.61649">
        <ele>11.192505</ele>
        <time>2011-09-08T12:14:13Z</time>
      </trkpt>
      <trkpt lat="42.34927" lon="8.61653">
        <ele>11.192505</ele>
        <time>2011-09-08T12:14:40Z</time>
      </trkpt>
      <trkpt lat="42.34929" lon="8.61653">
        <ele>10.711792</ele>
        <time>2011-09-08T12:14:59Z</time>
      </trkpt>
      <trkpt lat="42.34937" lon="8.61659">
        <ele>10.711792</ele>
        <time>2011-09-08T12:16:59Z</time>
      </trkpt>
      <trkpt lat="42.34936" lon="8.61659">
        <ele>10.711792</ele>
        <time>2011-09-08T12:17:25Z</time>
      </trkpt>
      <trkpt lat="42.34916" lon="8.6165">
        <ele>10.231201</ele>
        <time>2011-09-08T12:17:53Z</time>
      </trkpt>
      <trkpt lat="42.3491" lon="8.61651">
        <ele>11.192505</ele>
        <time>2011-09-08T12:19:34Z</time>
      </trkpt>
      <trkpt lat="42.3491" lon="8.6165">
        <ele>10.711792</ele>
        <time>2011-09-08T12:19:55Z</time>
      </trkpt>
      <trkpt lat="42.34924" lon="8.61645">
        <ele>11.192505</ele>
        <time>2011-09-08T12:21:20Z</time>
      </trkpt>
      <trkpt lat="42.34949" lon="8.61649">
        <ele>11.192505</ele>
        <time>2011-09-08T12:22:00Z</time>
      </trkpt>
      <trkpt lat="42.3492" lon="8.61644">
        <ele>10.711792</ele>
        <time>2011-09-08T12:22:20Z</time>
      </trkpt>
      <trkpt lat="42.34914" lon="8.61643">
        <ele>10.711792</ele>
        <time>2011-09-08T12:22:22Z</time>
      </trkpt>
      <trkpt lat="42.34891" lon="8.6164">
        <ele>10.711792</ele>
        <time>2011-09-08T12:22:43Z</time>
      </trkpt>
      <trkpt lat="42.34933" lon="8.6165">
        <ele>11.673218</ele>
        <time>2011-09-08T12:23:17Z</time>
      </trkpt>
      <trkpt lat="42.3492" lon="8.61634">
        <ele>10.711792</ele>
        <time>2011-09-08T12:24:29Z</time>
      </trkpt>
      <trkpt lat="42.3492" lon="8.61644">
        <ele>10.231201</ele>
        <time>2011-09-08T12:25:38Z</time>
      </trkpt>
      <trkpt lat="42.34913" lon="8.61649">
        <ele>8.308594</ele>
        <time>2011-09-08T12:25:57Z</time>
      </trkpt>
      <trkpt lat="42.34918" lon="8.61654">
        <ele>9.269897</ele>
        <time>2011-09-08T12:26:11Z</time>
      </trkpt>
      <trkpt lat="42.3492" lon="8.61659">
        <ele>7.827881</ele>
        <time>2011-09-08T12:27:37Z</time>
      </trkpt>
      <trkpt lat="42.34917" lon="8.61658">
        <ele>6.385864</ele>
        <time>2011-09-08T12:28:15Z</time>
      </trkpt>
      <trkpt lat="42.34919" lon="8.61656">
        <ele>6.866455</ele>
        <time>2011-09-08T12:28:31Z</time>
      </trkpt>
      <trkpt lat="42.34918" lon="8.61656">
        <ele>6.385864</ele>
        <time>2011-09-08T12:29:29Z</time>
      </trkpt>
      <trkpt lat="42.34918" lon="8.61657">
        <ele>6.866455</ele>
        <time>2011-09-08T12:29:37Z</time>
      </trkpt>
      <trkpt lat="42.34918" lon="8.61659">
        <ele>6.866455</ele>
        <time>2011-09-08T12:29:54Z</time>
      </trkpt>
      <trkpt lat="42.34917" lon="8.61658">
        <ele>3.982666</ele>
        <time>2011-09-08T12:35:06Z</time>
      </trkpt>
      <trkpt lat="42.34919" lon="8.6166">
        <ele>3.982666</ele>
        <time>2011-09-08T12:35:31Z</time>
      </trkpt>
      <trkpt lat="42.34918" lon="8.61663">
        <ele>5.905273</ele>
        <time>2011-09-08T12:35:48Z</time>
      </trkpt>
      <trkpt lat="42.34921" lon="8.61665">
        <ele>6.866455</ele>
        <time>2011-09-08T12:35:58Z</time>
      </trkpt>
      <trkpt lat="42.34926" lon="8.61665">
        <ele>9.75061</ele>
        <time>2011-09-08T12:36:09Z</time>
      </trkpt>
      <trkpt lat="42.34929" lon="8.61669">
        <ele>12.634399</ele>
        <time>2011-09-08T12:36:19Z</time>
      </trkpt>
      <trkpt lat="42.34933" lon="8.61668">
        <ele>14.557007</ele>
        <time>2011-09-08T12:36:34Z</time>
      </trkpt>
      <trkpt lat="42.34939" lon="8.6166">
        <ele>16.960449</ele>
        <time>2011-09-08T12:36:49Z</time>
      </trkpt>
      <trkpt lat="42.34942" lon="8.61658">
        <ele>18.883057</ele>
        <time>2011-09-08T12:37:03Z</time>
      </trkpt>
      <trkpt lat="42.34946" lon="8.61662">
        <ele>20.805664</ele>
        <time>2011-09-08T12:37:15Z</time>
      </trkpt>
      <trkpt lat="42.34948" lon="8.61679">
        <ele>20.324951</ele>
        <time>2011-09-08T12:37:32Z</time>
      </trkpt>
      <trkpt lat="42.34951" lon="8.617">
        <ele>18.402344</ele>
        <time>2011-09-08T12:37:49Z</time>
      </trkpt>
      <trkpt lat="42.34959" lon="8.61722">
        <ele>17.441162</ele>
        <time>2011-09-08T12:38:05Z</time>
      </trkpt>
      <trkpt lat="42.3496" lon="8.61728">
        <ele>17.441162</ele>
        <time>2011-09-08T12:38:09Z</time>
      </trkpt>
      <trkpt lat="42.34965" lon="8.61752">
        <ele>17.441162</ele>
        <time>2011-09-08T12:38:26Z</time>
      </trkpt>
      <trkpt lat="42.34965" lon="8.61754">
        <ele>17.441162</ele>
        <time>2011-09-08T12:38:27Z</time>
      </trkpt>
      <trkpt lat="42.34958" lon="8.61754">
        <ele>17.441162</ele>
        <time>2011-09-08T12:38:38Z</time>
      </trkpt>
      <trkpt lat="42.34949" lon="8.6175">
        <ele>18.402344</ele>
        <time>2011-09-08T12:38:46Z</time>
      </trkpt>
      <trkpt lat="42.34944" lon="8.61748">
        <ele>18.883057</ele>
        <time>2011-09-08T12:38:50Z</time>
      </trkpt>
      <trkpt lat="42.3492" lon="8.61743">
        <ele>20.805664</ele>
        <time>2011-09-08T12:39:10Z</time>
      </trkpt>
      <trkpt lat="42.34902" lon="8.61736">
        <ele>21.286377</ele>
        <time>2011-09-08T12:39:26Z</time>
      </trkpt>
      <trkpt lat="42.34888" lon="8.61733">
        <ele>24.170288</ele>
        <time>2011-09-08T12:39:41Z</time>
      </trkpt>
      <trkpt lat="42.34875" lon="8.61732">
        <ele>25.612305</ele>
        <time>2011-09-08T12:39:57Z</time>
      </trkpt>
      <trkpt lat="42.3486" lon="8.61736">
        <ele>25.612305</ele>
        <time>2011-09-08T12:40:11Z</time>
      </trkpt>
      <trkpt lat="42.34848" lon="8.61748">
        <ele>26.573608</ele>
        <time>2011-09-08T12:40:28Z</time>
      </trkpt>
      <trkpt lat="42.34839" lon="8.6176">
        <ele>28.496216</ele>
        <time>2011-09-08T12:40:43Z</time>
      </trkpt>
      <trkpt lat="42.34831" lon="8.61778">
        <ele>30.899536</ele>
        <time>2011-09-08T12:41:01Z</time>
      </trkpt>
      <trkpt lat="42.34825" lon="8.61783">
        <ele>31.380127</ele>
        <time>2011-09-08T12:41:10Z</time>
      </trkpt>
      <trkpt lat="42.34812" lon="8.61786">
        <ele>29.93811</ele>
        <time>2011-09-08T12:41:22Z</time>
      </trkpt>
      <trkpt lat="42.34799" lon="8.6179">
        <ele>29.93811</ele>
        <time>2011-09-08T12:41:38Z</time>
      </trkpt>
      <trkpt lat="42.34781" lon="8.618">
        <ele>30.899536</ele>
        <time>2011-09-08T12:41:55Z</time>
      </trkpt>
      <trkpt lat="42.34778" lon="8.61799">
        <ele>30.418823</ele>
        <time>2011-09-08T12:41:58Z</time>
      </trkpt>
      <trkpt lat="42.34764" lon="8.61806">
        <ele>30.899536</ele>
        <time>2011-09-08T12:42:11Z</time>
      </trkpt>
      <trkpt lat="42.34753" lon="8.61812">
        <ele>31.860718</ele>
        <time>2011-09-08T12:42:22Z</time>
      </trkpt>
      <trkpt lat="42.34736" lon="8.61823">
        <ele>31.860718</ele>
        <time>2011-09-08T12:42:40Z</time>
      </trkpt>
      <trkpt lat="42.34722" lon="8.61822">
        <ele>30.899536</ele>
        <time>2011-09-08T12:42:56Z</time>
      </trkpt>
      <trkpt lat="42.34716" lon="8.61822">
        <ele>30.418823</ele>
        <time>2011-09-08T12:43:24Z</time>
      </trkpt>
      <trkpt lat="42.34697" lon="8.61823">
        <ele>29.45752</ele>
        <time>2011-09-08T12:43:40Z</time>
      </trkpt>
      <trkpt lat="42.34689" lon="8.61825">
        <ele>28.976929</ele>
        <time>2011-09-08T12:43:56Z</time>
      </trkpt>
      <trkpt lat="42.34679" lon="8.61833">
        <ele>28.976929</ele>
        <time>2011-09-08T12:44:12Z</time>
      </trkpt>
      <trkpt lat="42.34675" lon="8.61842">
        <ele>32.341553</ele>
        <time>2011-09-08T12:44:24Z</time>
      </trkpt>
      <trkpt lat="42.34674" lon="8.61843">
        <ele>32.341553</ele>
        <time>2011-09-08T12:44:26Z</time>
      </trkpt>
      <trkpt lat="42.34664" lon="8.61855">
        <ele>31.860718</ele>
        <time>2011-09-08T12:44:41Z</time>
      </trkpt>
      <trkpt lat="42.34659" lon="8.61867">
        <ele>32.822266</ele>
        <time>2011-09-08T12:44:55Z</time>
      </trkpt>
      <trkpt lat="42.34656" lon="8.61878">
        <ele>33.302856</ele>
        <time>2011-09-08T12:45:11Z</time>
      </trkpt>
      <trkpt lat="42.34655" lon="8.61883">
        <ele>33.302856</ele>
        <time>2011-09-08T12:45:36Z</time>
      </trkpt>
      <trkpt lat="42.34648" lon="8.61908">
        <ele>32.341553</ele>
        <time>2011-09-08T12:45:53Z</time>
      </trkpt>
      <trkpt lat="42.34646" lon="8.61916">
        <ele>31.860718</ele>
        <time>2011-09-08T12:45:58Z</time>
      </trkpt>
      <trkpt lat="42.34643" lon="8.61919">
        <ele>30.418823</ele>
        <time>2011-09-08T12:46:01Z</time>
      </trkpt>
      <trkpt lat="42.34638" lon="8.61932">
        <ele>29.45752</ele>
        <time>2011-09-08T12:46:10Z</time>
      </trkpt>
      <trkpt lat="42.34636" lon="8.61953">
        <ele>29.93811</ele>
        <time>2011-09-08T12:46:23Z</time>
      </trkpt>
      <trkpt lat="42.34634" lon="8.61953">
        <ele>29.93811</ele>
        <time>2011-09-08T12:46:25Z</time>
      </trkpt>
      <trkpt lat="42.34625" lon="8.61942">
        <ele>31.860718</ele>
        <time>2011-09-08T12:46:37Z</time>
      </trkpt>
      <trkpt lat="42.34624" lon="8.61941">
        <ele>31.860718</ele>
        <time>2011-09-08T12:46:38Z</time>
      </trkpt>
      <trkpt lat="42.34623" lon="8.61939">
        <ele>31.860718</ele>
        <time>2011-09-08T12:46:40Z</time>
      </trkpt>
      <trkpt lat="42.34612" lon="8.61931">
        <ele>35.225464</ele>
        <time>2011-09-08T12:46:53Z</time>
      </trkpt>
      <trkpt lat="42.3461" lon="8.6193">
        <ele>36.186768</ele>
        <time>2011-09-08T12:46:55Z</time>
      </trkpt>
      <trkpt lat="42.34598" lon="8.61925">
        <ele>38.109375</ele>
        <time>2011-09-08T12:47:08Z</time>
      </trkpt>
      <trkpt lat="42.34587" lon="8.61922">
        <ele>38.590088</ele>
        <time>2011-09-08T12:47:24Z</time>
      </trkpt>
      <trkpt lat="42.34583" lon="8.61921">
        <ele>39.070679</ele>
        <time>2011-09-08T12:47:46Z</time>
      </trkpt>
      <trkpt lat="42.34574" lon="8.6192">
        <ele>40.993408</ele>
        <time>2011-09-08T12:47:55Z</time>
      </trkpt>
      <trkpt lat="42.34563" lon="8.61921">
        <ele>42.435425</ele>
        <time>2011-09-08T12:48:07Z</time>
      </trkpt>
      <trkpt lat="42.34547" lon="8.6192">
        <ele>45.799927</ele>
        <time>2011-09-08T12:48:23Z</time>
      </trkpt>
      <trkpt lat="42.34535" lon="8.6192">
        <ele>46.76123</ele>
        <time>2011-09-08T12:48:38Z</time>
      </trkpt>
      <trkpt lat="42.34526" lon="8.61919">
        <ele>47.722534</ele>
        <time>2011-09-08T12:48:51Z</time>
      </trkpt>
      <trkpt lat="42.34518" lon="8.61919">
        <ele>50.125977</ele>
        <time>2011-09-08T12:49:04Z</time>
      </trkpt>
      <trkpt lat="42.34512" lon="8.6192">
        <ele>53.971191</ele>
        <time>2011-09-08T12:49:14Z</time>
      </trkpt>
      <trkpt lat="42.34508" lon="8.61917">
        <ele>54.932373</ele>
        <time>2011-09-08T12:49:24Z</time>
      </trkpt>
      <trkpt lat="42.34498" lon="8.61928">
        <ele>57.335815</ele>
        <time>2011-09-08T12:49:43Z</time>
      </trkpt>
      <trkpt lat="42.34494" lon="8.61924">
        <ele>60.219727</ele>
        <time>2011-09-08T12:49:54Z</time>
      </trkpt>
      <trkpt lat="42.34491" lon="8.61914">
        <ele>62.142334</ele>
        <time>2011-09-08T12:50:07Z</time>
      </trkpt>
      <trkpt lat="42.34493" lon="8.61904">
        <ele>64.065063</ele>
        <time>2011-09-08T12:50:18Z</time>
      </trkpt>
      <trkpt lat="42.34493" lon="8.61901">
        <ele>65.026367</ele>
        <time>2011-09-08T12:50:21Z</time>
      </trkpt>
      <trkpt lat="42.34491" lon="8.61892">
        <ele>66.948975</ele>
        <time>2011-09-08T12:50:36Z</time>
      </trkpt>
      <trkpt lat="42.3449" lon="8.61883">
        <ele>68.390869</ele>
        <time>2011-09-08T12:50:48Z</time>
      </trkpt>
      <trkpt lat="42.34492" lon="8.61877">
        <ele>68.390869</ele>
        <time>2011-09-08T12:50:52Z</time>
      </trkpt>
      <trkpt lat="42.34495" lon="8.61852">
        <ele>70.313477</ele>
        <time>2011-09-08T12:51:09Z</time>
      </trkpt>
      <trkpt lat="42.34491" lon="8.61843">
        <ele>72.716919</ele>
        <time>2011-09-08T12:51:24Z</time>
      </trkpt>
      <trkpt lat="42.34487" lon="8.6184">
        <ele>75.120239</ele>
        <time>2011-09-08T12:51:37Z</time>
      </trkpt>
      <trkpt lat="42.34484" lon="8.61831">
        <ele>76.562134</ele>
        <time>2011-09-08T12:51:50Z</time>
      </trkpt>
      <trkpt lat="42.34481" lon="8.61828">
        <ele>77.523438</ele>
        <time>2011-09-08T12:52:01Z</time>
      </trkpt>
      <trkpt lat="42.34478" lon="8.61831">
        <ele>78.004028</ele>
        <time>2011-09-08T12:52:19Z</time>
      </trkpt>
      <trkpt lat="42.34467" lon="8.61839">
        <ele>80.407471</ele>
        <time>2011-09-08T12:52:34Z</time>
      </trkpt>
      <trkpt lat="42.34462" lon="8.61845">
        <ele>80.888184</ele>
        <time>2011-09-08T12:52:46Z</time>
      </trkpt>
      <trkpt lat="42.34456" lon="8.61848">
        <ele>81.849365</ele>
        <time>2011-09-08T12:52:56Z</time>
      </trkpt>
      <trkpt lat="42.34454" lon="8.61848">
        <ele>82.810791</ele>
        <time>2011-09-08T12:52:58Z</time>
      </trkpt>
      <trkpt lat="42.34446" lon="8.61845">
        <ele>84.252686</ele>
        <time>2011-09-08T12:53:11Z</time>
      </trkpt>
      <trkpt lat="42.34441" lon="8.61846">
        <ele>84.252686</ele>
        <time>2011-09-08T12:53:18Z</time>
      </trkpt>
      <trkpt lat="42.34427" lon="8.61848">
        <ele>83.771973</ele>
        <time>2011-09-08T12:53:33Z</time>
      </trkpt>
      <trkpt lat="42.34419" lon="8.61852">
        <ele>85.213989</ele>
        <time>2011-09-08T12:53:44Z</time>
      </trkpt>
      <trkpt lat="42.34411" lon="8.61853">
        <ele>84.252686</ele>
        <time>2011-09-08T12:53:58Z</time>
      </trkpt>
      <trkpt lat="42.34409" lon="8.61854">
        <ele>83.291382</ele>
        <time>2011-09-08T12:54:02Z</time>
      </trkpt>
      <trkpt lat="42.34407" lon="8.6186">
        <ele>84.733398</ele>
        <time>2011-09-08T12:54:19Z</time>
      </trkpt>
      <trkpt lat="42.34398" lon="8.61873">
        <ele>87.617188</ele>
        <time>2011-09-08T12:54:33Z</time>
      </trkpt>
      <trkpt lat="42.34387" lon="8.61882">
        <ele>89.059326</ele>
        <time>2011-09-08T12:54:47Z</time>
      </trkpt>
      <trkpt lat="42.3438" lon="8.61886">
        <ele>91.943237</ele>
        <time>2011-09-08T12:55:01Z</time>
      </trkpt>
      <trkpt lat="42.34378" lon="8.61886">
        <ele>93.385132</ele>
        <time>2011-09-08T12:55:04Z</time>
      </trkpt>
      <trkpt lat="42.34372" lon="8.61888">
        <ele>94.827148</ele>
        <time>2011-09-08T12:55:18Z</time>
      </trkpt>
      <trkpt lat="42.34367" lon="8.61892">
        <ele>91.943237</ele>
        <time>2011-09-08T12:55:32Z</time>
      </trkpt>
      <trkpt lat="42.34364" lon="8.61898">
        <ele>92.904541</ele>
        <time>2011-09-08T12:55:41Z</time>
      </trkpt>
      <trkpt lat="42.34363" lon="8.619">
        <ele>94.346558</ele>
        <time>2011-09-08T12:55:45Z</time>
      </trkpt>
      <trkpt lat="42.34356" lon="8.61907">
        <ele>95.307739</ele>
        <time>2011-09-08T12:55:58Z</time>
      </trkpt>
      <trkpt lat="42.34345" lon="8.61915">
        <ele>96.269287</ele>
        <time>2011-09-08T12:56:14Z</time>
      </trkpt>
      <trkpt lat="42.34341" lon="8.61923">
        <ele>96.269287</ele>
        <time>2011-09-08T12:56:27Z</time>
      </trkpt>
      <trkpt lat="42.34335" lon="8.61931">
        <ele>97.230469</ele>
        <time>2011-09-08T12:56:43Z</time>
      </trkpt>
      <trkpt lat="42.3433" lon="8.61932">
        <ele>96.749878</ele>
        <time>2011-09-08T12:56:55Z</time>
      </trkpt>
      <trkpt lat="42.34324" lon="8.61931">
        <ele>96.749878</ele>
        <time>2011-09-08T12:57:06Z</time>
      </trkpt>
      <trkpt lat="42.34316" lon="8.61924">
        <ele>96.269287</ele>
        <time>2011-09-08T12:57:16Z</time>
      </trkpt>
      <trkpt lat="42.34306" lon="8.61922">
        <ele>96.269287</ele>
        <time>2011-09-08T12:57:31Z</time>
      </trkpt>
      <trkpt lat="42.34297" lon="8.61917">
        <ele>94.346558</ele>
        <time>2011-09-08T12:57:42Z</time>
      </trkpt>
      <trkpt lat="42.34296" lon="8.61917">
        <ele>94.346558</ele>
        <time>2011-09-08T12:57:43Z</time>
      </trkpt>
      <trkpt lat="42.34282" lon="8.61917">
        <ele>92.42395</ele>
        <time>2011-09-08T12:58:01Z</time>
      </trkpt>
      <trkpt lat="42.34269" lon="8.61916">
        <ele>90.981934</ele>
        <time>2011-09-08T12:58:16Z</time>
      </trkpt>
      <trkpt lat="42.34261" lon="8.61919">
        <ele>92.904541</ele>
        <time>2011-09-08T12:58:29Z</time>
      </trkpt>
      <trkpt lat="42.34256" lon="8.61921">
        <ele>92.42395</ele>
        <time>2011-09-08T12:58:36Z</time>
      </trkpt>
      <trkpt lat="42.34249" lon="8.61923">
        <ele>92.904541</ele>
        <time>2011-09-08T12:58:45Z</time>
      </trkpt>
      <trkpt lat="42.34235" lon="8.61928">
        <ele>90.981934</ele>
        <time>2011-09-08T12:59:01Z</time>
      </trkpt>
      <trkpt lat="42.34224" lon="8.61932">
        <ele>88.578735</ele>
        <time>2011-09-08T12:59:15Z</time>
      </trkpt>
      <trkpt lat="42.34217" lon="8.61936">
        <ele>88.578735</ele>
        <time>2011-09-08T12:59:24Z</time>
      </trkpt>
      <trkpt lat="42.34203" lon="8.61949">
        <ele>89.059326</ele>
        <time>2011-09-08T12:59:40Z</time>
      </trkpt>
      <trkpt lat="42.34194" lon="8.61962">
        <ele>87.617188</ele>
        <time>2011-09-08T12:59:56Z</time>
      </trkpt>
      <trkpt lat="42.34186" lon="8.61981">
        <ele>87.136597</ele>
        <time>2011-09-08T13:00:14Z</time>
      </trkpt>
      <trkpt lat="42.3418" lon="8.62006">
        <ele>87.617188</ele>
        <time>2011-09-08T13:00:31Z</time>
      </trkpt>
      <trkpt lat="42.34176" lon="8.6202">
        <ele>87.617188</ele>
        <time>2011-09-08T13:00:46Z</time>
      </trkpt>
      <trkpt lat="42.34175" lon="8.6203">
        <ele>88.578735</ele>
        <time>2011-09-08T13:01:00Z</time>
      </trkpt>
      <trkpt lat="42.34174" lon="8.62038">
        <ele>87.617188</ele>
        <time>2011-09-08T13:01:15Z</time>
      </trkpt>
      <trkpt lat="42.34175" lon="8.62034">
        <ele>89.059326</ele>
        <time>2011-09-08T13:01:20Z</time>
      </trkpt>
      <trkpt lat="42.34175" lon="8.6203">
        <ele>88.098022</ele>
        <time>2011-09-08T13:01:39Z</time>
      </trkpt>
      <trkpt lat="42.34172" lon="8.62035">
        <ele>86.175293</ele>
        <time>2011-09-08T13:01:53Z</time>
      </trkpt>
      <trkpt lat="42.34171" lon="8.62037">
        <ele>85.213989</ele>
        <time>2011-09-08T13:01:56Z</time>
      </trkpt>
      <trkpt lat="42.3417" lon="8.62039">
        <ele>84.252686</ele>
        <time>2011-09-08T13:01:58Z</time>
      </trkpt>
      <trkpt lat="42.34169" lon="8.62049">
        <ele>86.175293</ele>
        <time>2011-09-08T13:02:12Z</time>
      </trkpt>
      <trkpt lat="42.34169" lon="8.62051">
        <ele>87.617188</ele>
        <time>2011-09-08T13:02:15Z</time>
      </trkpt>
      <trkpt lat="42.34168" lon="8.62053">
        <ele>88.578735</ele>
        <time>2011-09-08T13:02:17Z</time>
      </trkpt>
      <trkpt lat="42.34166" lon="8.62057">
        <ele>89.539917</ele>
        <time>2011-09-08T13:02:24Z</time>
      </trkpt>
      <trkpt lat="42.34164" lon="8.62064">
        <ele>91.462524</ele>
        <time>2011-09-08T13:02:36Z</time>
      </trkpt>
      <trkpt lat="42.34162" lon="8.62069">
        <ele>89.539917</ele>
        <time>2011-09-08T13:02:54Z</time>
      </trkpt>
      <trkpt lat="42.34163" lon="8.62078">
        <ele>88.578735</ele>
        <time>2011-09-08T13:03:06Z</time>
      </trkpt>
      <trkpt lat="42.34164" lon="8.62085">
        <ele>87.617188</ele>
        <time>2011-09-08T13:03:19Z</time>
      </trkpt>
      <trkpt lat="42.34166" lon="8.62088">
        <ele>87.136597</ele>
        <time>2011-09-08T13:03:23Z</time>
      </trkpt>
      <trkpt lat="42.34173" lon="8.62104">
        <ele>87.136597</ele>
        <time>2011-09-08T13:03:37Z</time>
      </trkpt>
      <trkpt lat="42.34173" lon="8.62109">
        <ele>86.656006</ele>
        <time>2011-09-08T13:03:43Z</time>
      </trkpt>
      <trkpt lat="42.34173" lon="8.62128">
        <ele>86.175293</ele>
        <time>2011-09-08T13:03:58Z</time>
      </trkpt>
      <trkpt lat="42.34173" lon="8.62133">
        <ele>84.252686</ele>
        <time>2011-09-08T13:04:04Z</time>
      </trkpt>
      <trkpt lat="42.34172" lon="8.62136">
        <ele>83.291382</ele>
        <time>2011-09-08T13:04:07Z</time>
      </trkpt>
      <trkpt lat="42.34168" lon="8.62144">
        <ele>83.291382</ele>
        <time>2011-09-08T13:04:18Z</time>
      </trkpt>
      <trkpt lat="42.34166" lon="8.62148">
        <ele>82.330078</ele>
        <time>2011-09-08T13:04:21Z</time>
      </trkpt>
      <trkpt lat="42.34156" lon="8.62164">
        <ele>84.252686</ele>
        <time>2011-09-08T13:04:34Z</time>
      </trkpt>
      <trkpt lat="42.34149" lon="8.62182">
        <ele>86.175293</ele>
        <time>2011-09-08T13:04:50Z</time>
      </trkpt>
      <trkpt lat="42.34144" lon="8.62192">
        <ele>85.213989</ele>
        <time>2011-09-08T13:05:03Z</time>
      </trkpt>
      <trkpt lat="42.34141" lon="8.62195">
        <ele>84.733398</ele>
        <time>2011-09-08T13:05:07Z</time>
      </trkpt>
      <trkpt lat="42.34138" lon="8.62218">
        <ele>83.291382</ele>
        <time>2011-09-08T13:05:25Z</time>
      </trkpt>
      <trkpt lat="42.34136" lon="8.6222">
        <ele>83.771973</ele>
        <time>2011-09-08T13:05:28Z</time>
      </trkpt>
      <trkpt lat="42.34133" lon="8.62232">
        <ele>83.291382</ele>
        <time>2011-09-08T13:05:40Z</time>
      </trkpt>
      <trkpt lat="42.3413" lon="8.62239">
        <ele>81.368774</ele>
        <time>2011-09-08T13:05:54Z</time>
      </trkpt>
      <trkpt lat="42.34128" lon="8.62243">
        <ele>78.004028</ele>
        <time>2011-09-08T13:06:11Z</time>
      </trkpt>
      <trkpt lat="42.34128" lon="8.62243">
        <ele>78.004028</ele>
        <time>2011-09-08T13:06:12Z</time>
      </trkpt>
      <trkpt lat="42.34126" lon="8.62244">
        <ele>76.562134</ele>
        <time>2011-09-08T13:06:15Z</time>
      </trkpt>
      <trkpt lat="42.34124" lon="8.62252">
        <ele>75.120239</ele>
        <time>2011-09-08T13:06:23Z</time>
      </trkpt>
      <trkpt lat="42.34119" lon="8.62273">
        <ele>73.197632</ele>
        <time>2011-09-08T13:06:39Z</time>
      </trkpt>
      <trkpt lat="42.34117" lon="8.62284">
        <ele>73.678223</ele>
        <time>2011-09-08T13:06:54Z</time>
      </trkpt>
      <trkpt lat="42.34117" lon="8.62286">
        <ele>73.678223</ele>
        <time>2011-09-08T13:07:06Z</time>
      </trkpt>
      <trkpt lat="42.34114" lon="8.62298">
        <ele>73.678223</ele>
        <time>2011-09-08T13:07:22Z</time>
      </trkpt>
      <trkpt lat="42.34111" lon="8.62306">
        <ele>72.716919</ele>
        <time>2011-09-08T13:07:34Z</time>
      </trkpt>
      <trkpt lat="42.34104" lon="8.62325">
        <ele>72.716919</ele>
        <time>2011-09-08T13:07:49Z</time>
      </trkpt>
      <trkpt lat="42.34103" lon="8.62335">
        <ele>71.274902</ele>
        <time>2011-09-08T13:08:03Z</time>
      </trkpt>
      <trkpt lat="42.34102" lon="8.62344">
        <ele>69.352295</ele>
        <time>2011-09-08T13:08:38Z</time>
      </trkpt>
      <trkpt lat="42.34101" lon="8.62345">
        <ele>69.352295</ele>
        <time>2011-09-08T13:08:39Z</time>
      </trkpt>
      <trkpt lat="42.34098" lon="8.62358">
        <ele>67.429688</ele>
        <time>2011-09-08T13:08:53Z</time>
      </trkpt>
      <trkpt lat="42.34098" lon="8.62361">
        <ele>66.948975</ele>
        <time>2011-09-08T13:08:56Z</time>
      </trkpt>
      <trkpt lat="42.34096" lon="8.62363">
        <ele>66.468262</ele>
        <time>2011-09-08T13:08:58Z</time>
      </trkpt>
      <trkpt lat="42.34097" lon="8.62379">
        <ele>63.103638</ele>
        <time>2011-09-08T13:09:09Z</time>
      </trkpt>
      <trkpt lat="42.34097" lon="8.62388">
        <ele>60.700317</ele>
        <time>2011-09-08T13:09:19Z</time>
      </trkpt>
      <trkpt lat="42.34098" lon="8.62399">
        <ele>58.297119</ele>
        <time>2011-09-08T13:09:33Z</time>
      </trkpt>
      <trkpt lat="42.34101" lon="8.62405">
        <ele>56.855103</ele>
        <time>2011-09-08T13:09:48Z</time>
      </trkpt>
      <trkpt lat="42.341" lon="8.62412">
        <ele>54.451782</ele>
        <time>2011-09-08T13:10:03Z</time>
      </trkpt>
      <trkpt lat="42.34101" lon="8.62417">
        <ele>52.529175</ele>
        <time>2011-09-08T13:10:15Z</time>
      </trkpt>
      <trkpt lat="42.34105" lon="8.62426">
        <ele>51.087158</ele>
        <time>2011-09-08T13:10:30Z</time>
      </trkpt>
      <trkpt lat="42.34111" lon="8.62436">
        <ele>48.203369</ele>
        <time>2011-09-08T13:10:44Z</time>
      </trkpt>
      <trkpt lat="42.34118" lon="8.62453">
        <ele>45.799927</ele>
        <time>2011-09-08T13:11:01Z</time>
      </trkpt>
      <trkpt lat="42.34117" lon="8.62462">
        <ele>43.396606</ele>
        <time>2011-09-08T13:11:19Z</time>
      </trkpt>
      <trkpt lat="42.34115" lon="8.62467">
        <ele>40.993408</ele>
        <time>2011-09-08T13:11:33Z</time>
      </trkpt>
      <trkpt lat="42.34117" lon="8.62487">
        <ele>39.070679</ele>
        <time>2011-09-08T13:11:49Z</time>
      </trkpt>
      <trkpt lat="42.34117" lon="8.62506">
        <ele>35.706055</ele>
        <time>2011-09-08T13:12:07Z</time>
      </trkpt>
      <trkpt lat="42.3412" lon="8.62519">
        <ele>34.744873</ele>
        <time>2011-09-08T13:12:22Z</time>
      </trkpt>
      <trkpt lat="42.34121" lon="8.62526">
        <ele>33.302856</ele>
        <time>2011-09-08T13:12:35Z</time>
      </trkpt>
      <trkpt lat="42.34118" lon="8.62533">
        <ele>31.860718</ele>
        <time>2011-09-08T13:12:49Z</time>
      </trkpt>
      <trkpt lat="42.34119" lon="8.62539">
        <ele>30.899536</ele>
        <time>2011-09-08T13:13:09Z</time>
      </trkpt>
      <trkpt lat="42.34118" lon="8.62543">
        <ele>29.45752</ele>
        <time>2011-09-08T13:13:23Z</time>
      </trkpt>
      <trkpt lat="42.34118" lon="8.62548">
        <ele>28.015503</ele>
        <time>2011-09-08T13:13:37Z</time>
      </trkpt>
      <trkpt lat="42.34121" lon="8.62555">
        <ele>24.651001</ele>
        <time>2011-09-08T13:13:49Z</time>
      </trkpt>
      <trkpt lat="42.34125" lon="8.62564">
        <ele>22.247559</ele>
        <time>2011-09-08T13:14:05Z</time>
      </trkpt>
      <trkpt lat="42.34127" lon="8.6257">
        <ele>20.324951</ele>
        <time>2011-09-08T13:14:19Z</time>
      </trkpt>
      <trkpt lat="42.34127" lon="8.62572">
        <ele>18.883057</ele>
        <time>2011-09-08T13:14:23Z</time>
      </trkpt>
      <trkpt lat="42.34126" lon="8.62574">
        <ele>18.402344</ele>
        <time>2011-09-08T13:14:28Z</time>
      </trkpt>
      <trkpt lat="42.34127" lon="8.62579">
        <ele>16.479736</ele>
        <time>2011-09-08T13:14:40Z</time>
      </trkpt>
      <trkpt lat="42.3413" lon="8.62587">
        <ele>15.518433</ele>
        <time>2011-09-08T13:14:56Z</time>
      </trkpt>
      <trkpt lat="42.34132" lon="8.62593">
        <ele>12.634399</ele>
        <time>2011-09-08T13:15:11Z</time>
      </trkpt>
      <trkpt lat="42.34134" lon="8.62596">
        <ele>10.711792</ele>
        <time>2011-09-08T13:15:23Z</time>
      </trkpt>
      <trkpt lat="42.34135" lon="8.62597">
        <ele>10.231201</ele>
        <time>2011-09-08T13:15:24Z</time>
      </trkpt>
      <trkpt lat="42.34135" lon="8.62604">
        <ele>7.347168</ele>
        <time>2011-09-08T13:15:33Z</time>
      </trkpt>
      <trkpt lat="42.34135" lon="8.62605">
        <ele>6.866455</ele>
        <time>2011-09-08T13:15:34Z</time>
      </trkpt>
      <trkpt lat="42.34124" lon="8.62613">
        <ele>5.424561</ele>
        <time>2011-09-08T13:15:45Z</time>
      </trkpt>
      <trkpt lat="42.34116" lon="8.62615">
        <ele>3.982666</ele>
        <time>2011-09-08T13:15:55Z</time>
      </trkpt>
      <trkpt lat="42.34112" lon="8.62614">
        <ele>3.982666</ele>
        <time>2011-09-08T13:16:00Z</time>
      </trkpt>
      <trkpt lat="42.34093" lon="8.62617">
        <ele>3.501953</ele>
        <time>2011-09-08T13:16:15Z</time>
      </trkpt>
      <trkpt lat="42.34087" lon="8.62629">
        <ele>4.943848</ele>
        <time>2011-09-08T13:16:26Z</time>
      </trkpt>
      <trkpt lat="42.34086" lon="8.62643">
        <ele>7.827881</ele>
        <time>2011-09-08T13:16:36Z</time>
      </trkpt>
      <trkpt lat="42.34076" lon="8.62662">
        <ele>9.269897</ele>
        <time>2011-09-08T13:16:53Z</time>
      </trkpt>
      <trkpt lat="42.34075" lon="8.62664">
        <ele>10.231201</ele>
        <time>2011-09-08T13:16:55Z</time>
      </trkpt>
      <trkpt lat="42.34075" lon="8.62677">
        <ele>10.711792</ele>
        <time>2011-09-08T13:17:03Z</time>
      </trkpt>
      <trkpt lat="42.34073" lon="8.62683">
        <ele>10.231201</ele>
        <time>2011-09-08T13:17:07Z</time>
      </trkpt>
      <trkpt lat="42.34077" lon="8.62701">
        <ele>10.711792</ele>
        <time>2011-09-08T13:17:21Z</time>
      </trkpt>
      <trkpt lat="42.34078" lon="8.62717">
        <ele>10.231201</ele>
        <time>2011-09-08T13:17:34Z</time>
      </trkpt>
      <trkpt lat="42.34086" lon="8.62744">
        <ele>10.231201</ele>
        <time>2011-09-08T13:17:51Z</time>
      </trkpt>
      <trkpt lat="42.34094" lon="8.62775">
        <ele>10.711792</ele>
        <time>2011-09-08T13:18:11Z</time>
      </trkpt>
      <trkpt lat="42.34088" lon="8.62802">
        <ele>9.269897</ele>
        <time>2011-09-08T13:18:30Z</time>
      </trkpt>
      <trkpt lat="42.34086" lon="8.62804">
        <ele>9.75061</ele>
        <time>2011-09-08T13:18:32Z</time>
      </trkpt>
      <trkpt lat="42.34086" lon="8.62812">
        <ele>9.269897</ele>
        <time>2011-09-08T13:18:38Z</time>
      </trkpt>
      <trkpt lat="42.34083" lon="8.6282">
        <ele>8.789185</ele>
        <time>2011-09-08T13:18:43Z</time>
      </trkpt>
      <trkpt lat="42.34079" lon="8.62835">
        <ele>7.347168</ele>
        <time>2011-09-08T13:18:57Z</time>
      </trkpt>
      <trkpt lat="42.34076" lon="8.62841">
        <ele>6.866455</ele>
        <time>2011-09-08T13:19:08Z</time>
      </trkpt>
      <trkpt lat="42.34073" lon="8.62844">
        <ele>5.905273</ele>
        <time>2011-09-08T13:19:18Z</time>
      </trkpt>
      <trkpt lat="42.34066" lon="8.62844">
        <ele>3.501953</ele>
        <time>2011-09-08T13:19:32Z</time>
      </trkpt>
      <trkpt lat="42.34065" lon="8.62852">
        <ele>1.579346</ele>
        <time>2011-09-08T13:19:46Z</time>
      </trkpt>
      <trkpt lat="42.34065" lon="8.62854">
        <ele>1.579346</ele>
        <time>2011-09-08T13:19:49Z</time>
      </trkpt>
      <trkpt lat="42.34059" lon="8.62865">
        <ele>1.098633</ele>
        <time>2011-09-08T13:20:01Z</time>
      </trkpt>
      <trkpt lat="42.34048" lon="8.62877">
        <ele>-0.343384</ele>
        <time>2011-09-08T13:20:17Z</time>
      </trkpt>
      <trkpt lat="42.34046" lon="8.6288">
        <ele>-0.343384</ele>
        <time>2011-09-08T13:20:28Z</time>
      </trkpt>
      <trkpt lat="42.34038" lon="8.62887">
        <ele>0.618042</ele>
        <time>2011-09-08T13:20:37Z</time>
      </trkpt>
      <trkpt lat="42.34034" lon="8.62895">
        <ele>1.579346</ele>
        <time>2011-09-08T13:20:43Z</time>
      </trkpt>
      <trkpt lat="42.34017" lon="8.62911">
        <ele>0.618042</ele>
        <time>2011-09-08T13:20:59Z</time>
      </trkpt>
      <trkpt lat="42.34007" lon="8.62922">
        <ele>0.137451</ele>
        <time>2011-09-08T13:21:10Z</time>
      </trkpt>
      <trkpt lat="42.34" lon="8.62938">
        <ele>-0.343384</ele>
        <time>2011-09-08T13:21:22Z</time>
      </trkpt>
      <trkpt lat="42.33982" lon="8.62965">
        <ele>-0.824097</ele>
        <time>2011-09-08T13:21:45Z</time>
      </trkpt>
      <trkpt lat="42.33971" lon="8.62985">
        <ele>-0.824097</ele>
        <time>2011-09-08T13:22:04Z</time>
      </trkpt>
      <trkpt lat="42.33972" lon="8.62986">
        <ele>-0.824097</ele>
        <time>2011-09-08T13:22:23Z</time>
      </trkpt>
      <trkpt lat="42.33971" lon="8.62986">
        <ele>-1.304688</ele>
        <time>2011-09-08T13:22:28Z</time>
      </trkpt>
      <trkpt lat="42.3397" lon="8.62986">
        <ele>0.137451</ele>
        <time>2011-09-08T13:22:42Z</time>
      </trkpt>
      <trkpt lat="42.33972" lon="8.62982">
        <ele>-0.824097</ele>
        <time>2011-09-08T13:22:44Z</time>
      </trkpt>
      <trkpt lat="42.33974" lon="8.62977">
        <ele>-1.785278</ele>
        <time>2011-09-08T13:22:55Z</time>
      </trkpt>
      <trkpt lat="42.3397" lon="8.62991">
        <ele>1.579346</ele>
        <time>2011-09-08T13:23:08Z</time>
      </trkpt>
      <trkpt lat="42.33968" lon="8.62999">
        <ele>-0.343384</ele>
        <time>2011-09-08T13:23:32Z</time>
      </trkpt>
      <trkpt lat="42.3397" lon="8.62992">
        <ele>0.618042</ele>
        <time>2011-09-08T13:23:42Z</time>
      </trkpt>
      <trkpt lat="42.3397" lon="8.62992">
        <ele>-0.343384</ele>
        <time>2011-09-08T13:23:44Z</time>
      </trkpt>
      <trkpt lat="42.33972" lon="8.62984">
        <ele>0.137451</ele>
        <time>2011-09-08T13:24:30Z</time>
      </trkpt>
      <trkpt lat="42.33975" lon="8.62989">
        <ele>0.137451</ele>
        <time>2011-09-08T13:24:35Z</time>
      </trkpt>
      <trkpt lat="42.33977" lon="8.62997">
        <ele>0.137451</ele>
        <time>2011-09-08T13:24:41Z</time>
      </trkpt>
      <trkpt lat="42.33977" lon="8.63003">
        <ele>0.137451</ele>
        <time>2011-09-08T13:24:45Z</time>
      </trkpt>
      <trkpt lat="42.33979" lon="8.63009">
        <ele>1.579346</ele>
        <time>2011-09-08T13:24:50Z</time>
      </trkpt>
      <trkpt lat="42.33987" lon="8.63022">
        <ele>1.098633</ele>
        <time>2011-09-08T13:25:02Z</time>
      </trkpt>
      <trkpt lat="42.33988" lon="8.63023">
        <ele>1.098633</ele>
        <time>2011-09-08T13:25:03Z</time>
      </trkpt>
      <trkpt lat="42.3399" lon="8.63029">
        <ele>1.098633</ele>
        <time>2011-09-08T13:25:07Z</time>
      </trkpt>
      <trkpt lat="42.33995" lon="8.63062">
        <ele>2.060059</ele>
        <time>2011-09-08T13:25:26Z</time>
      </trkpt>
      <trkpt lat="42.33989" lon="8.63089">
        <ele>2.060059</ele>
        <time>2011-09-08T13:25:44Z</time>
      </trkpt>
      <trkpt lat="42.33988" lon="8.6309">
        <ele>2.540649</ele>
        <time>2011-09-08T13:25:45Z</time>
      </trkpt>
      <trkpt lat="42.33984" lon="8.63095">
        <ele>3.501953</ele>
        <time>2011-09-08T13:25:53Z</time>
      </trkpt>
      <trkpt lat="42.33975" lon="8.63113">
        <ele>6.866455</ele>
        <time>2011-09-08T13:26:12Z</time>
      </trkpt>
      <trkpt lat="42.33969" lon="8.63115">
        <ele>8.789185</ele>
        <time>2011-09-08T13:26:23Z</time>
      </trkpt>
      <trkpt lat="42.33969" lon="8.63114">
        <ele>8.789185</ele>
        <time>2011-09-08T13:26:24Z</time>
      </trkpt>
      <trkpt lat="42.33965" lon="8.631">
        <ele>10.711792</ele>
        <time>2011-09-08T13:26:37Z</time>
      </trkpt>
      <trkpt lat="42.33964" lon="8.63087">
        <ele>11.673218</ele>
        <time>2011-09-08T13:26:49Z</time>
      </trkpt>
      <trkpt lat="42.33965" lon="8.63061">
        <ele>13.595825</ele>
        <time>2011-09-08T13:27:04Z</time>
      </trkpt>
      <trkpt lat="42.3396" lon="8.63038">
        <ele>15.518433</ele>
        <time>2011-09-08T13:27:19Z</time>
      </trkpt>
      <trkpt lat="42.33953" lon="8.63022">
        <ele>16.960449</ele>
        <time>2011-09-08T13:27:33Z</time>
      </trkpt>
      <trkpt lat="42.3395" lon="8.6301">
        <ele>17.921753</ele>
        <time>2011-09-08T13:27:42Z</time>
      </trkpt>
      <trkpt lat="42.33941" lon="8.62989">
        <ele>19.36377</ele>
        <time>2011-09-08T13:27:58Z</time>
      </trkpt>
      <trkpt lat="42.3393" lon="8.62972">
        <ele>21.766968</ele>
        <time>2011-09-08T13:28:15Z</time>
      </trkpt>
      <trkpt lat="42.33921" lon="8.62963">
        <ele>23.689575</ele>
        <time>2011-09-08T13:28:28Z</time>
      </trkpt>
      <trkpt lat="42.33912" lon="8.62957">
        <ele>27.054321</ele>
        <time>2011-09-08T13:28:41Z</time>
      </trkpt>
      <trkpt lat="42.33902" lon="8.62949">
        <ele>29.93811</ele>
        <time>2011-09-08T13:28:55Z</time>
      </trkpt>
      <trkpt lat="42.33901" lon="8.62948">
        <ele>30.418823</ele>
        <time>2011-09-08T13:28:56Z</time>
      </trkpt>
      <trkpt lat="42.33887" lon="8.62945">
        <ele>31.380127</ele>
        <time>2011-09-08T13:29:12Z</time>
      </trkpt>
      <trkpt lat="42.33884" lon="8.62945">
        <ele>32.341553</ele>
        <time>2011-09-08T13:29:15Z</time>
      </trkpt>
      <trkpt lat="42.33865" lon="8.62939">
        <ele>33.302856</ele>
        <time>2011-09-08T13:29:36Z</time>
      </trkpt>
      <trkpt lat="42.33863" lon="8.62939">
        <ele>34.744873</ele>
        <time>2011-09-08T13:29:38Z</time>
      </trkpt>
      <trkpt lat="42.33854" lon="8.62933">
        <ele>35.706055</ele>
        <time>2011-09-08T13:29:48Z</time>
      </trkpt>
      <trkpt lat="42.33847" lon="8.62922">
        <ele>36.66748</ele>
        <time>2011-09-08T13:30:02Z</time>
      </trkpt>
      <trkpt lat="42.33843" lon="8.62913">
        <ele>37.628662</ele>
        <time>2011-09-08T13:30:11Z</time>
      </trkpt>
      <trkpt lat="42.33836" lon="8.62902">
        <ele>39.55127</ele>
        <time>2011-09-08T13:30:24Z</time>
      </trkpt>
      <trkpt lat="42.33826" lon="8.629">
        <ele>41.473999</ele>
        <time>2011-09-08T13:30:37Z</time>
      </trkpt>
      <trkpt lat="42.33816" lon="8.62897">
        <ele>44.358032</ele>
        <time>2011-09-08T13:30:51Z</time>
      </trkpt>
      <trkpt lat="42.33806" lon="8.62893">
        <ele>47.722534</ele>
        <time>2011-09-08T13:31:03Z</time>
      </trkpt>
      <trkpt lat="42.33795" lon="8.62889">
        <ele>49.645264</ele>
        <time>2011-09-08T13:31:19Z</time>
      </trkpt>
      <trkpt lat="42.33789" lon="8.62886">
        <ele>51.087158</ele>
        <time>2011-09-08T13:31:30Z</time>
      </trkpt>
      <trkpt lat="42.33782" lon="8.62885">
        <ele>52.048584</ele>
        <time>2011-09-08T13:31:42Z</time>
      </trkpt>
      <trkpt lat="42.33774" lon="8.62883">
        <ele>54.451782</ele>
        <time>2011-09-08T13:31:54Z</time>
      </trkpt>
      <trkpt lat="42.33766" lon="8.6288">
        <ele>57.816528</ele>
        <time>2011-09-08T13:32:05Z</time>
      </trkpt>
      <trkpt lat="42.33759" lon="8.62877">
        <ele>59.258423</ele>
        <time>2011-09-08T13:32:16Z</time>
      </trkpt>
      <trkpt lat="42.3375" lon="8.62875">
        <ele>61.18103</ele>
        <time>2011-09-08T13:32:27Z</time>
      </trkpt>
      <trkpt lat="42.33743" lon="8.62872">
        <ele>64.545654</ele>
        <time>2011-09-08T13:32:38Z</time>
      </trkpt>
      <trkpt lat="42.33736" lon="8.62868">
        <ele>66.468262</ele>
        <time>2011-09-08T13:32:50Z</time>
      </trkpt>
      <trkpt lat="42.33727" lon="8.62866">
        <ele>69.352295</ele>
        <time>2011-09-08T13:33:03Z</time>
      </trkpt>
      <trkpt lat="42.33718" lon="8.62864">
        <ele>71.274902</ele>
        <time>2011-09-08T13:33:16Z</time>
      </trkpt>
      <trkpt lat="42.33711" lon="8.62863">
        <ele>73.678223</ele>
        <time>2011-09-08T13:33:27Z</time>
      </trkpt>
      <trkpt lat="42.33702" lon="8.62861">
        <ele>75.60083</ele>
        <time>2011-09-08T13:33:40Z</time>
      </trkpt>
      <trkpt lat="42.337" lon="8.62862">
        <ele>76.081421</ele>
        <time>2011-09-08T13:33:43Z</time>
      </trkpt>
      <trkpt lat="42.3368" lon="8.62866">
        <ele>78.484741</ele>
        <time>2011-09-08T13:33:59Z</time>
      </trkpt>
      <trkpt lat="42.33669" lon="8.62866">
        <ele>80.407471</ele>
        <time>2011-09-08T13:34:14Z</time>
      </trkpt>
      <trkpt lat="42.33658" lon="8.62866">
        <ele>83.291382</ele>
        <time>2011-09-08T13:34:31Z</time>
      </trkpt>
      <trkpt lat="42.33647" lon="8.62865">
        <ele>85.69458</ele>
        <time>2011-09-08T13:34:45Z</time>
      </trkpt>
      <trkpt lat="42.33642" lon="8.62868">
        <ele>86.175293</ele>
        <time>2011-09-08T13:34:50Z</time>
      </trkpt>
      <trkpt lat="42.33632" lon="8.62882">
        <ele>88.578735</ele>
        <time>2011-09-08T13:35:07Z</time>
      </trkpt>
      <trkpt lat="42.3363" lon="8.62886">
        <ele>88.578735</ele>
        <time>2011-09-08T13:35:11Z</time>
      </trkpt>
      <trkpt lat="42.33626" lon="8.62903">
        <ele>91.462524</ele>
        <time>2011-09-08T13:35:26Z</time>
      </trkpt>
      <trkpt lat="42.33626" lon="8.62918">
        <ele>94.346558</ele>
        <time>2011-09-08T13:35:42Z</time>
      </trkpt>
      <trkpt lat="42.33622" lon="8.62931">
        <ele>97.230469</ele>
        <time>2011-09-08T13:35:55Z</time>
      </trkpt>
      <trkpt lat="42.33615" lon="8.62945">
        <ele>99.153076</ele>
        <time>2011-09-08T13:36:08Z</time>
      </trkpt>
      <trkpt lat="42.33612" lon="8.62955">
        <ele>101.075684</ele>
        <time>2011-09-08T13:36:20Z</time>
      </trkpt>
      <trkpt lat="42.33604" lon="8.62969">
        <ele>103.479004</ele>
        <time>2011-09-08T13:36:35Z</time>
      </trkpt>
      <trkpt lat="42.33593" lon="8.62989">
        <ele>104.44043</ele>
        <time>2011-09-08T13:36:52Z</time>
      </trkpt>
      <trkpt lat="42.33592" lon="8.62991">
        <ele>104.44043</ele>
        <time>2011-09-08T13:36:53Z</time>
      </trkpt>
      <trkpt lat="42.33588" lon="8.63017">
        <ele>107.324341</ele>
        <time>2011-09-08T13:37:12Z</time>
      </trkpt>
      <trkpt lat="42.33588" lon="8.6302">
        <ele>107.324341</ele>
        <time>2011-09-08T13:37:14Z</time>
      </trkpt>
      <trkpt lat="42.33586" lon="8.63045">
        <ele>109.727661</ele>
        <time>2011-09-08T13:37:33Z</time>
      </trkpt>
      <trkpt lat="42.33582" lon="8.63062">
        <ele>112.130981</ele>
        <time>2011-09-08T13:37:49Z</time>
      </trkpt>
      <trkpt lat="42.33578" lon="8.63074">
        <ele>114.053589</ele>
        <time>2011-09-08T13:38:02Z</time>
      </trkpt>
      <trkpt lat="42.33567" lon="8.63097">
        <ele>115.495605</ele>
        <time>2011-09-08T13:38:21Z</time>
      </trkpt>
      <trkpt lat="42.33563" lon="8.63105">
        <ele>116.456787</ele>
        <time>2011-09-08T13:38:28Z</time>
      </trkpt>
      <trkpt lat="42.33554" lon="8.63117">
        <ele>117.898804</ele>
        <time>2011-09-08T13:38:43Z</time>
      </trkpt>
      <trkpt lat="42.33543" lon="8.63124">
        <ele>120.782837</ele>
        <time>2011-09-08T13:38:57Z</time>
      </trkpt>
      <trkpt lat="42.33533" lon="8.63132">
        <ele>123.666748</ele>
        <time>2011-09-08T13:39:10Z</time>
      </trkpt>
      <trkpt lat="42.33519" lon="8.63141">
        <ele>125.108765</ele>
        <time>2011-09-08T13:39:25Z</time>
      </trkpt>
      <trkpt lat="42.33506" lon="8.63142">
        <ele>126.550659</ele>
        <time>2011-09-08T13:39:37Z</time>
      </trkpt>
      <trkpt lat="42.33497" lon="8.63147">
        <ele>127.992554</ele>
        <time>2011-09-08T13:39:46Z</time>
      </trkpt>
      <trkpt lat="42.33491" lon="8.63149">
        <ele>128.473389</ele>
        <time>2011-09-08T13:39:52Z</time>
      </trkpt>
      <trkpt lat="42.3348" lon="8.63157">
        <ele>130.876709</ele>
        <time>2011-09-08T13:40:06Z</time>
      </trkpt>
      <trkpt lat="42.33476" lon="8.63161">
        <ele>131.837891</ele>
        <time>2011-09-08T13:40:11Z</time>
      </trkpt>
      <trkpt lat="42.33469" lon="8.63167">
        <ele>133.279907</ele>
        <time>2011-09-08T13:40:20Z</time>
      </trkpt>
      <trkpt lat="42.33463" lon="8.63175">
        <ele>135.683105</ele>
        <time>2011-09-08T13:40:31Z</time>
      </trkpt>
      <trkpt lat="42.33459" lon="8.63181">
        <ele>137.125244</ele>
        <time>2011-09-08T13:40:36Z</time>
      </trkpt>
      <trkpt lat="42.33452" lon="8.63196">
        <ele>137.605835</ele>
        <time>2011-09-08T13:40:48Z</time>
      </trkpt>
      <trkpt lat="42.33451" lon="8.63208">
        <ele>138.567261</ele>
        <time>2011-09-08T13:41:02Z</time>
      </trkpt>
      <trkpt lat="42.33448" lon="8.63224">
        <ele>140.970459</ele>
        <time>2011-09-08T13:41:14Z</time>
      </trkpt>
      <trkpt lat="42.33446" lon="8.63229">
        <ele>140.489868</ele>
        <time>2011-09-08T13:41:18Z</time>
      </trkpt>
      <trkpt lat="42.33443" lon="8.63247">
        <ele>140.489868</ele>
        <time>2011-09-08T13:41:31Z</time>
      </trkpt>
      <trkpt lat="42.33438" lon="8.63278">
        <ele>141.45105</ele>
        <time>2011-09-08T13:41:50Z</time>
      </trkpt>
      <trkpt lat="42.33429" lon="8.63288">
        <ele>141.45105</ele>
        <time>2011-09-08T13:42:00Z</time>
      </trkpt>
      <trkpt lat="42.33429" lon="8.6329">
        <ele>141.45105</ele>
        <time>2011-09-08T13:42:02Z</time>
      </trkpt>
      <trkpt lat="42.33429" lon="8.63294">
        <ele>142.412476</ele>
        <time>2011-09-08T13:42:05Z</time>
      </trkpt>
      <trkpt lat="42.33426" lon="8.63303">
        <ele>143.85437</ele>
        <time>2011-09-08T13:42:13Z</time>
      </trkpt>
      <trkpt lat="42.33412" lon="8.63316">
        <ele>146.738403</ele>
        <time>2011-09-08T13:42:32Z</time>
      </trkpt>
      <trkpt lat="42.33409" lon="8.6332">
        <ele>147.699707</ele>
        <time>2011-09-08T13:42:36Z</time>
      </trkpt>
      <trkpt lat="42.33391" lon="8.63336">
        <ele>150.103027</ele>
        <time>2011-09-08T13:42:56Z</time>
      </trkpt>
      <trkpt lat="42.33378" lon="8.63353">
        <ele>152.025757</ele>
        <time>2011-09-08T13:43:12Z</time>
      </trkpt>
      <trkpt lat="42.33368" lon="8.6338">
        <ele>155.390259</ele>
        <time>2011-09-08T13:43:29Z</time>
      </trkpt>
      <trkpt lat="42.33362" lon="8.63406">
        <ele>157.312866</ele>
        <time>2011-09-08T13:43:46Z</time>
      </trkpt>
      <trkpt lat="42.3336" lon="8.6343">
        <ele>158.27417</ele>
        <time>2011-09-08T13:44:02Z</time>
      </trkpt>
      <trkpt lat="42.33353" lon="8.63454">
        <ele>160.67749</ele>
        <time>2011-09-08T13:44:19Z</time>
      </trkpt>
      <trkpt lat="42.33348" lon="8.63462">
        <ele>162.119507</ele>
        <time>2011-09-08T13:44:27Z</time>
      </trkpt>
      <trkpt lat="42.33342" lon="8.63465">
        <ele>163.080811</ele>
        <time>2011-09-08T13:44:33Z</time>
      </trkpt>
      <trkpt lat="42.33324" lon="8.63473">
        <ele>165.003418</ele>
        <time>2011-09-08T13:44:51Z</time>
      </trkpt>
      <trkpt lat="42.33311" lon="8.63487">
        <ele>168.368042</ele>
        <time>2011-09-08T13:45:07Z</time>
      </trkpt>
      <trkpt lat="42.33305" lon="8.635">
        <ele>168.848755</ele>
        <time>2011-09-08T13:45:16Z</time>
      </trkpt>
      <trkpt lat="42.33291" lon="8.63527">
        <ele>169.810059</ele>
        <time>2011-09-08T13:45:35Z</time>
      </trkpt>
      <trkpt lat="42.33276" lon="8.63545">
        <ele>171.732666</ele>
        <time>2011-09-08T13:45:54Z</time>
      </trkpt>
      <trkpt lat="42.33271" lon="8.63558">
        <ele>174.135864</ele>
        <time>2011-09-08T13:46:05Z</time>
      </trkpt>
      <trkpt lat="42.33267" lon="8.63562">
        <ele>175.577881</ele>
        <time>2011-09-08T13:46:10Z</time>
      </trkpt>
      <trkpt lat="42.33264" lon="8.63566">
        <ele>176.058594</ele>
        <time>2011-09-08T13:46:14Z</time>
      </trkpt>
      <trkpt lat="42.33242" lon="8.63584">
        <ele>178.461914</ele>
        <time>2011-09-08T13:46:36Z</time>
      </trkpt>
      <trkpt lat="42.33228" lon="8.63598">
        <ele>179.903809</ele>
        <time>2011-09-08T13:46:51Z</time>
      </trkpt>
      <trkpt lat="42.33224" lon="8.63597">
        <ele>180.384521</ele>
        <time>2011-09-08T13:46:55Z</time>
      </trkpt>
      <trkpt lat="42.33218" lon="8.63584">
        <ele>182.307129</ele>
        <time>2011-09-08T13:47:16Z</time>
      </trkpt>
      <trkpt lat="42.3321" lon="8.63571">
        <ele>184.229858</ele>
        <time>2011-09-08T13:47:28Z</time>
      </trkpt>
      <trkpt lat="42.33206" lon="8.63571">
        <ele>186.633179</ele>
        <time>2011-09-08T13:47:33Z</time>
      </trkpt>
      <trkpt lat="42.332" lon="8.63563">
        <ele>188.075073</ele>
        <time>2011-09-08T13:47:44Z</time>
      </trkpt>
      <trkpt lat="42.33193" lon="8.63557">
        <ele>190.958984</ele>
        <time>2011-09-08T13:47:54Z</time>
      </trkpt>
      <trkpt lat="42.33182" lon="8.63546">
        <ele>193.362305</ele>
        <time>2011-09-08T13:48:08Z</time>
      </trkpt>
      <trkpt lat="42.33174" lon="8.63541">
        <ele>196.726929</ele>
        <time>2011-09-08T13:48:18Z</time>
      </trkpt>
      <trkpt lat="42.33167" lon="8.63535">
        <ele>198.649536</ele>
        <time>2011-09-08T13:48:29Z</time>
      </trkpt>
      <trkpt lat="42.33158" lon="8.63529">
        <ele>201.533569</ele>
        <time>2011-09-08T13:48:41Z</time>
      </trkpt>
      <trkpt lat="42.33145" lon="8.63518">
        <ele>202.494873</ele>
        <time>2011-09-08T13:48:57Z</time>
      </trkpt>
      <trkpt lat="42.3313" lon="8.6351">
        <ele>203.93689</ele>
        <time>2011-09-08T13:49:14Z</time>
      </trkpt>
      <trkpt lat="42.33127" lon="8.63511">
        <ele>205.859497</ele>
        <time>2011-09-08T13:49:17Z</time>
      </trkpt>
      <trkpt lat="42.33121" lon="8.6351">
        <ele>207.782104</ele>
        <time>2011-09-08T13:49:26Z</time>
      </trkpt>
      <trkpt lat="42.33115" lon="8.63507">
        <ele>207.301392</ele>
        <time>2011-09-08T13:49:32Z</time>
      </trkpt>
      <trkpt lat="42.33091" lon="8.63511">
        <ele>208.743408</ele>
        <time>2011-09-08T13:49:55Z</time>
      </trkpt>
      <trkpt lat="42.33084" lon="8.63523">
        <ele>209.704834</ele>
        <time>2011-09-08T13:50:09Z</time>
      </trkpt>
      <trkpt lat="42.3307" lon="8.63533">
        <ele>209.224121</ele>
        <time>2011-09-08T13:50:25Z</time>
      </trkpt>
      <trkpt lat="42.33051" lon="8.63545">
        <ele>209.224121</ele>
        <time>2011-09-08T13:50:42Z</time>
      </trkpt>
      <trkpt lat="42.33049" lon="8.63547">
        <ele>209.704834</ele>
        <time>2011-09-08T13:50:46Z</time>
      </trkpt>
      <trkpt lat="42.33043" lon="8.63549">
        <ele>209.704834</ele>
        <time>2011-09-08T13:50:51Z</time>
      </trkpt>
      <trkpt lat="42.33016" lon="8.63565">
        <ele>210.666016</ele>
        <time>2011-09-08T13:51:14Z</time>
      </trkpt>
      <trkpt lat="42.32988" lon="8.63579">
        <ele>211.146729</ele>
        <time>2011-09-08T13:51:37Z</time>
      </trkpt>
      <trkpt lat="42.32965" lon="8.63589">
        <ele>212.588623</ele>
        <time>2011-09-08T13:51:56Z</time>
      </trkpt>
      <trkpt lat="42.3295" lon="8.636">
        <ele>213.550049</ele>
        <time>2011-09-08T13:52:10Z</time>
      </trkpt>
      <trkpt lat="42.32942" lon="8.63593">
        <ele>215.472656</ele>
        <time>2011-09-08T13:52:21Z</time>
      </trkpt>
      <trkpt lat="42.32941" lon="8.63587">
        <ele>216.914673</ele>
        <time>2011-09-08T13:52:25Z</time>
      </trkpt>
      <trkpt lat="42.32933" lon="8.63563">
        <ele>217.875977</ele>
        <time>2011-09-08T13:52:44Z</time>
      </trkpt>
      <trkpt lat="42.32927" lon="8.63548">
        <ele>220.759888</ele>
        <time>2011-09-08T13:52:56Z</time>
      </trkpt>
      <trkpt lat="42.32919" lon="8.63528">
        <ele>222.682495</ele>
        <time>2011-09-08T13:53:12Z</time>
      </trkpt>
      <trkpt lat="42.32916" lon="8.63523">
        <ele>223.163208</ele>
        <time>2011-09-08T13:53:17Z</time>
      </trkpt>
      <trkpt lat="42.32911" lon="8.63508">
        <ele>225.085938</ele>
        <time>2011-09-08T13:53:29Z</time>
      </trkpt>
      <trkpt lat="42.32894" lon="8.63496">
        <ele>227.008545</ele>
        <time>2011-09-08T13:53:45Z</time>
      </trkpt>
      <trkpt lat="42.32882" lon="8.63493">
        <ele>228.450439</ele>
        <time>2011-09-08T13:53:55Z</time>
      </trkpt>
      <trkpt lat="42.32857" lon="8.63486">
        <ele>229.411743</ele>
        <time>2011-09-08T13:54:15Z</time>
      </trkpt>
      <trkpt lat="42.32843" lon="8.63476">
        <ele>230.373047</ele>
        <time>2011-09-08T13:54:29Z</time>
      </trkpt>
      <trkpt lat="42.32842" lon="8.63469">
        <ele>230.85376</ele>
        <time>2011-09-08T13:54:34Z</time>
      </trkpt>
      <trkpt lat="42.32832" lon="8.63453">
        <ele>234.218384</ele>
        <time>2011-09-08T13:54:48Z</time>
      </trkpt>
      <trkpt lat="42.32828" lon="8.63443">
        <ele>235.179688</ele>
        <time>2011-09-08T13:54:56Z</time>
      </trkpt>
      <trkpt lat="42.32817" lon="8.63428">
        <ele>237.102295</ele>
        <time>2011-09-08T13:55:09Z</time>
      </trkpt>
      <trkpt lat="42.32811" lon="8.63417">
        <ele>239.024902</ele>
        <time>2011-09-08T13:55:19Z</time>
      </trkpt>
      <trkpt lat="42.32804" lon="8.63405">
        <ele>241.908936</ele>
        <time>2011-09-08T13:55:30Z</time>
      </trkpt>
      <trkpt lat="42.32795" lon="8.6339">
        <ele>244.792847</ele>
        <time>2011-09-08T13:55:44Z</time>
      </trkpt>
      <trkpt lat="42.32794" lon="8.63388">
        <ele>244.792847</ele>
        <time>2011-09-08T13:55:46Z</time>
      </trkpt>
      <trkpt lat="42.32779" lon="8.63373">
        <ele>247.676758</ele>
        <time>2011-09-08T13:56:02Z</time>
      </trkpt>
      <trkpt lat="42.32773" lon="8.63366">
        <ele>248.157593</ele>
        <time>2011-09-08T13:56:09Z</time>
      </trkpt>
      <trkpt lat="42.32768" lon="8.63362">
        <ele>248.638184</ele>
        <time>2011-09-08T13:56:14Z</time>
      </trkpt>
      <trkpt lat="42.32752" lon="8.63349">
        <ele>251.522095</ele>
        <time>2011-09-08T13:56:31Z</time>
      </trkpt>
      <trkpt lat="42.32744" lon="8.63337">
        <ele>253.925415</ele>
        <time>2011-09-08T13:56:47Z</time>
      </trkpt>
      <trkpt lat="42.32744" lon="8.63336">
        <ele>253.925415</ele>
        <time>2011-09-08T13:56:48Z</time>
      </trkpt>
      <trkpt lat="42.32739" lon="8.63331">
        <ele>254.886597</ele>
        <time>2011-09-08T13:56:54Z</time>
      </trkpt>
      <trkpt lat="42.32735" lon="8.63327">
        <ele>255.36731</ele>
        <time>2011-09-08T13:57:00Z</time>
      </trkpt>
      <trkpt lat="42.32723" lon="8.63315">
        <ele>257.770752</ele>
        <time>2011-09-08T13:57:16Z</time>
      </trkpt>
      <trkpt lat="42.32716" lon="8.63305">
        <ele>259.693359</ele>
        <time>2011-09-08T13:57:29Z</time>
      </trkpt>
      <trkpt lat="42.32704" lon="8.63291">
        <ele>261.615967</ele>
        <time>2011-09-08T13:57:45Z</time>
      </trkpt>
      <trkpt lat="42.32703" lon="8.63276">
        <ele>264.499878</ele>
        <time>2011-09-08T13:58:00Z</time>
      </trkpt>
      <trkpt lat="42.32703" lon="8.63275">
        <ele>264.499878</ele>
        <time>2011-09-08T13:58:01Z</time>
      </trkpt>
      <trkpt lat="42.32703" lon="8.63269">
        <ele>264.980591</ele>
        <time>2011-09-08T13:58:05Z</time>
      </trkpt>
      <trkpt lat="42.32698" lon="8.63242">
        <ele>265.941895</ele>
        <time>2011-09-08T13:58:22Z</time>
      </trkpt>
      <trkpt lat="42.32695" lon="8.63237">
        <ele>266.422485</ele>
        <time>2011-09-08T13:58:26Z</time>
      </trkpt>
      <trkpt lat="42.32688" lon="8.63232">
        <ele>266.422485</ele>
        <time>2011-09-08T13:58:32Z</time>
      </trkpt>
      <trkpt lat="42.32662" lon="8.63218">
        <ele>267.383911</ele>
        <time>2011-09-08T13:58:54Z</time>
      </trkpt>
      <trkpt lat="42.32645" lon="8.63212">
        <ele>267.864502</ele>
        <time>2011-09-08T13:59:14Z</time>
      </trkpt>
      <trkpt lat="42.32644" lon="8.63207">
        <ele>267.864502</ele>
        <time>2011-09-08T13:59:25Z</time>
      </trkpt>
      <trkpt lat="42.32643" lon="8.63209">
        <ele>267.383911</ele>
        <time>2011-09-08T13:59:44Z</time>
      </trkpt>
      <trkpt lat="42.32643" lon="8.63209">
        <ele>266.903198</ele>
        <time>2011-09-08T13:59:46Z</time>
      </trkpt>
      <trkpt lat="42.32643" lon="8.63207">
        <ele>267.383911</ele>
        <time>2011-09-08T13:59:57Z</time>
      </trkpt>
      <trkpt lat="42.32643" lon="8.63208">
        <ele>267.864502</ele>
        <time>2011-09-08T14:00:07Z</time>
      </trkpt>
      <trkpt lat="42.32646" lon="8.63209">
        <ele>268.345093</ele>
        <time>2011-09-08T14:00:19Z</time>
      </trkpt>
      <trkpt lat="42.32645" lon="8.63209">
        <ele>268.345093</ele>
        <time>2011-09-08T14:00:44Z</time>
      </trkpt>
      <trkpt lat="42.32642" lon="8.63207">
        <ele>268.345093</ele>
        <time>2011-09-08T14:01:16Z</time>
      </trkpt>
      <trkpt lat="42.32644" lon="8.63208">
        <ele>267.864502</ele>
        <time>2011-09-08T14:01:35Z</time>
      </trkpt>
    </trkseg>
  </trk>
</gpx>